<?xml version="1.0" encoding="UTF-8" standalone="no" ?>
<gpx xmlns="http://www.topografix.com/GPX/1/1" xmlns:xsi="http://www.w3.org/2001/XMLSchema-instance" xsi:schemaLocation="http://www.topografix.com/GPX/1/1 http://www.topografix.com/GPX/1/1/gpx.xsd" version="1.1" creator="VisuGPX - https://www.visugpx.com">
  <metadata>
    <name>V.t.t sur la Londe</name>
    <desc><![CDATA[Sortie vers la Londe entre dévers et technique retour vers le grésil et les 17 tournants.]]></desc>
  </metadata>
  <trk>
    <name><![CDATA[Tracé 08 mars 2014]]></name>
    <trkseg>
      <trkpt lat="49.38813" lon="1.05957">
        <ele>81.09</ele>
        <time>2014-03-08T12:55:12Z</time>
      </trkpt>
      <trkpt lat="49.38825" lon="1.05996">
        <ele>81.12</ele>
        <time>2014-03-08T12:55:42Z</time>
      </trkpt>
      <trkpt lat="49.38821" lon="1.05974">
        <ele>81.54</ele>
        <time>2014-03-08T12:59:19Z</time>
      </trkpt>
      <trkpt lat="49.38772" lon="1.05984">
        <ele>81.82</ele>
        <time>2014-03-08T12:59:37Z</time>
      </trkpt>
      <trkpt lat="49.3872" lon="1.05997">
        <ele>81.8</ele>
        <time>2014-03-08T12:59:53Z</time>
      </trkpt>
      <trkpt lat="49.38669" lon="1.06011">
        <ele>82.25</ele>
        <time>2014-03-08T13:00:09Z</time>
      </trkpt>
      <trkpt lat="49.3863" lon="1.0597">
        <ele>82.02</ele>
        <time>2014-03-08T13:00:23Z</time>
      </trkpt>
      <trkpt lat="49.38592" lon="1.05927">
        <ele>81.76</ele>
        <time>2014-03-08T13:00:34Z</time>
      </trkpt>
      <trkpt lat="49.38555" lon="1.05887">
        <ele>81.73</ele>
        <time>2014-03-08T13:00:45Z</time>
      </trkpt>
      <trkpt lat="49.38513" lon="1.05847">
        <ele>81.75</ele>
        <time>2014-03-08T13:00:58Z</time>
      </trkpt>
      <trkpt lat="49.38513" lon="1.05789">
        <ele>81.33</ele>
        <time>2014-03-08T13:01:11Z</time>
      </trkpt>
      <trkpt lat="49.38496" lon="1.05729">
        <ele>80.9</ele>
        <time>2014-03-08T13:01:23Z</time>
      </trkpt>
      <trkpt lat="49.3845" lon="1.05691">
        <ele>80.97</ele>
        <time>2014-03-08T13:01:34Z</time>
      </trkpt>
      <trkpt lat="49.38405" lon="1.05658">
        <ele>80.84</ele>
        <time>2014-03-08T13:01:46Z</time>
      </trkpt>
      <trkpt lat="49.38363" lon="1.05627">
        <ele>81.12</ele>
        <time>2014-03-08T13:01:58Z</time>
      </trkpt>
      <trkpt lat="49.38315" lon="1.05609">
        <ele>81.91</ele>
        <time>2014-03-08T13:02:14Z</time>
      </trkpt>
      <trkpt lat="49.38288" lon="1.05685">
        <ele>82.66</ele>
        <time>2014-03-08T13:02:29Z</time>
      </trkpt>
      <trkpt lat="49.38265" lon="1.05764">
        <ele>83.35</ele>
        <time>2014-03-08T13:02:43Z</time>
      </trkpt>
      <trkpt lat="49.38235" lon="1.05842">
        <ele>83.47</ele>
        <time>2014-03-08T13:02:58Z</time>
      </trkpt>
      <trkpt lat="49.38182" lon="1.05882">
        <ele>84.16</ele>
        <time>2014-03-08T13:03:17Z</time>
      </trkpt>
      <trkpt lat="49.38169" lon="1.05968">
        <ele>84</ele>
        <time>2014-03-08T13:03:34Z</time>
      </trkpt>
      <trkpt lat="49.38148" lon="1.06049">
        <ele>84.14</ele>
        <time>2014-03-08T13:03:50Z</time>
      </trkpt>
      <trkpt lat="49.38117" lon="1.06124">
        <ele>83.75</ele>
        <time>2014-03-08T13:04:05Z</time>
      </trkpt>
      <trkpt lat="49.3808" lon="1.06181">
        <ele>84.4</ele>
        <time>2014-03-08T13:04:21Z</time>
      </trkpt>
      <trkpt lat="49.38031" lon="1.062">
        <ele>85</ele>
        <time>2014-03-08T13:04:34Z</time>
      </trkpt>
      <trkpt lat="49.37986" lon="1.06213">
        <ele>85.26</ele>
        <time>2014-03-08T13:04:54Z</time>
      </trkpt>
      <trkpt lat="49.3794" lon="1.06222">
        <ele>85.19</ele>
        <time>2014-03-08T13:05:10Z</time>
      </trkpt>
      <trkpt lat="49.37889" lon="1.06236">
        <ele>85.33</ele>
        <time>2014-03-08T13:05:24Z</time>
      </trkpt>
      <trkpt lat="49.37837" lon="1.06256">
        <ele>85.36</ele>
        <time>2014-03-08T13:05:37Z</time>
      </trkpt>
      <trkpt lat="49.3779" lon="1.06273">
        <ele>85.42</ele>
        <time>2014-03-08T13:05:48Z</time>
      </trkpt>
      <trkpt lat="49.37743" lon="1.06287">
        <ele>85.66</ele>
        <time>2014-03-08T13:05:59Z</time>
      </trkpt>
      <trkpt lat="49.37696" lon="1.06299">
        <ele>86.12</ele>
        <time>2014-03-08T13:06:10Z</time>
      </trkpt>
      <trkpt lat="49.37649" lon="1.06312">
        <ele>86.64</ele>
        <time>2014-03-08T13:06:21Z</time>
      </trkpt>
      <trkpt lat="49.37598" lon="1.06328">
        <ele>87.09</ele>
        <time>2014-03-08T13:06:33Z</time>
      </trkpt>
      <trkpt lat="49.37548" lon="1.06342">
        <ele>87.31</ele>
        <time>2014-03-08T13:06:45Z</time>
      </trkpt>
      <trkpt lat="49.37499" lon="1.06341">
        <ele>87.68</ele>
        <time>2014-03-08T13:06:57Z</time>
      </trkpt>
      <trkpt lat="49.37455" lon="1.06322">
        <ele>88.36</ele>
        <time>2014-03-08T13:07:09Z</time>
      </trkpt>
      <trkpt lat="49.37433" lon="1.06268">
        <ele>90</ele>
        <time>2014-03-08T13:07:24Z</time>
      </trkpt>
      <trkpt lat="49.37431" lon="1.06259">
        <ele>90.64</ele>
        <time>2014-03-08T13:07:32Z</time>
      </trkpt>
      <trkpt lat="49.37422" lon="1.06246">
        <ele>91.03</ele>
        <time>2014-03-08T13:08:32Z</time>
      </trkpt>
      <trkpt lat="49.37408" lon="1.06175">
        <ele>91.66</ele>
        <time>2014-03-08T13:08:49Z</time>
      </trkpt>
      <trkpt lat="49.37395" lon="1.06101">
        <ele>91.57</ele>
        <time>2014-03-08T13:09:04Z</time>
      </trkpt>
      <trkpt lat="49.37382" lon="1.06022">
        <ele>90.95</ele>
        <time>2014-03-08T13:09:18Z</time>
      </trkpt>
      <trkpt lat="49.37362" lon="1.05945">
        <ele>89.93</ele>
        <time>2014-03-08T13:09:29Z</time>
      </trkpt>
      <trkpt lat="49.37347" lon="1.0587">
        <ele>89.03</ele>
        <time>2014-03-08T13:09:39Z</time>
      </trkpt>
      <trkpt lat="49.37328" lon="1.05794">
        <ele>90.02</ele>
        <time>2014-03-08T13:09:51Z</time>
      </trkpt>
      <trkpt lat="49.3731" lon="1.05719">
        <ele>91.59</ele>
        <time>2014-03-08T13:10:07Z</time>
      </trkpt>
      <trkpt lat="49.37291" lon="1.05632">
        <ele>92.73</ele>
        <time>2014-03-08T13:10:32Z</time>
      </trkpt>
      <trkpt lat="49.37273" lon="1.05549">
        <ele>93.64</ele>
        <time>2014-03-08T13:10:47Z</time>
      </trkpt>
      <trkpt lat="49.37258" lon="1.05471">
        <ele>94.74</ele>
        <time>2014-03-08T13:11:00Z</time>
      </trkpt>
      <trkpt lat="49.37236" lon="1.0539">
        <ele>95.7</ele>
        <time>2014-03-08T13:11:14Z</time>
      </trkpt>
      <trkpt lat="49.37235" lon="1.05375">
        <ele>96.44</ele>
        <time>2014-03-08T13:11:27Z</time>
      </trkpt>
      <trkpt lat="49.37249" lon="1.0541">
        <ele>96.14</ele>
        <time>2014-03-08T13:12:51Z</time>
      </trkpt>
      <trkpt lat="49.3723" lon="1.05334">
        <ele>96.37</ele>
        <time>2014-03-08T13:13:05Z</time>
      </trkpt>
      <trkpt lat="49.37204" lon="1.05264">
        <ele>97.54</ele>
        <time>2014-03-08T13:13:24Z</time>
      </trkpt>
      <trkpt lat="49.3715" lon="1.05228">
        <ele>98.48</ele>
        <time>2014-03-08T13:13:41Z</time>
      </trkpt>
      <trkpt lat="49.37099" lon="1.05182">
        <ele>99.95</ele>
        <time>2014-03-08T13:13:57Z</time>
      </trkpt>
      <trkpt lat="49.37046" lon="1.05141">
        <ele>100.88</ele>
        <time>2014-03-08T13:14:13Z</time>
      </trkpt>
      <trkpt lat="49.36994" lon="1.05103">
        <ele>101.44</ele>
        <time>2014-03-08T13:14:27Z</time>
      </trkpt>
      <trkpt lat="49.36944" lon="1.05065">
        <ele>102.26</ele>
        <time>2014-03-08T13:14:43Z</time>
      </trkpt>
      <trkpt lat="49.36898" lon="1.05022">
        <ele>102.47</ele>
        <time>2014-03-08T13:14:59Z</time>
      </trkpt>
      <trkpt lat="49.36846" lon="1.04979">
        <ele>103.05</ele>
        <time>2014-03-08T13:15:17Z</time>
      </trkpt>
      <trkpt lat="49.36798" lon="1.04934">
        <ele>102.99</ele>
        <time>2014-03-08T13:15:32Z</time>
      </trkpt>
      <trkpt lat="49.3675" lon="1.0489">
        <ele>103.25</ele>
        <time>2014-03-08T13:15:48Z</time>
      </trkpt>
      <trkpt lat="49.367" lon="1.04849">
        <ele>103.7</ele>
        <time>2014-03-08T13:16:03Z</time>
      </trkpt>
      <trkpt lat="49.36652" lon="1.04805">
        <ele>104.49</ele>
        <time>2014-03-08T13:16:18Z</time>
      </trkpt>
      <trkpt lat="49.36604" lon="1.04761">
        <ele>105.2</ele>
        <time>2014-03-08T13:16:32Z</time>
      </trkpt>
      <trkpt lat="49.36558" lon="1.04721">
        <ele>105.92</ele>
        <time>2014-03-08T13:16:46Z</time>
      </trkpt>
      <trkpt lat="49.36511" lon="1.04676">
        <ele>106.06</ele>
        <time>2014-03-08T13:17:00Z</time>
      </trkpt>
      <trkpt lat="49.36463" lon="1.04632">
        <ele>106.14</ele>
        <time>2014-03-08T13:17:12Z</time>
      </trkpt>
      <trkpt lat="49.36416" lon="1.04589">
        <ele>106.41</ele>
        <time>2014-03-08T13:17:24Z</time>
      </trkpt>
      <trkpt lat="49.36374" lon="1.04548">
        <ele>106.64</ele>
        <time>2014-03-08T13:17:37Z</time>
      </trkpt>
      <trkpt lat="49.36327" lon="1.04502">
        <ele>107.09</ele>
        <time>2014-03-08T13:17:52Z</time>
      </trkpt>
      <trkpt lat="49.36275" lon="1.0446">
        <ele>107.56</ele>
        <time>2014-03-08T13:18:06Z</time>
      </trkpt>
      <trkpt lat="49.3623" lon="1.0442">
        <ele>107.77</ele>
        <time>2014-03-08T13:18:18Z</time>
      </trkpt>
      <trkpt lat="49.36189" lon="1.04383">
        <ele>107.82</ele>
        <time>2014-03-08T13:18:30Z</time>
      </trkpt>
      <trkpt lat="49.36153" lon="1.0438">
        <ele>106.71</ele>
        <time>2014-03-08T13:18:44Z</time>
      </trkpt>
      <trkpt lat="49.36132" lon="1.04313">
        <ele>106.12</ele>
        <time>2014-03-08T13:18:55Z</time>
      </trkpt>
      <trkpt lat="49.36112" lon="1.04247">
        <ele>106.13</ele>
        <time>2014-03-08T13:19:07Z</time>
      </trkpt>
      <trkpt lat="49.36092" lon="1.04178">
        <ele>108.3</ele>
        <time>2014-03-08T13:19:20Z</time>
      </trkpt>
      <trkpt lat="49.36066" lon="1.04123">
        <ele>110.82</ele>
        <time>2014-03-08T13:19:34Z</time>
      </trkpt>
      <trkpt lat="49.3604" lon="1.04187">
        <ele>110.74</ele>
        <time>2014-03-08T13:19:46Z</time>
      </trkpt>
      <trkpt lat="49.36016" lon="1.04253">
        <ele>110.52</ele>
        <time>2014-03-08T13:19:58Z</time>
      </trkpt>
      <trkpt lat="49.35993" lon="1.04325">
        <ele>110.35</ele>
        <time>2014-03-08T13:20:10Z</time>
      </trkpt>
      <trkpt lat="49.35971" lon="1.04399">
        <ele>109.86</ele>
        <time>2014-03-08T13:20:22Z</time>
      </trkpt>
      <trkpt lat="49.35947" lon="1.04473">
        <ele>109.61</ele>
        <time>2014-03-08T13:20:35Z</time>
      </trkpt>
      <trkpt lat="49.35922" lon="1.04547">
        <ele>108.66</ele>
        <time>2014-03-08T13:20:47Z</time>
      </trkpt>
      <trkpt lat="49.35891" lon="1.04597">
        <ele>110.11</ele>
        <time>2014-03-08T13:21:03Z</time>
      </trkpt>
      <trkpt lat="49.35847" lon="1.04566">
        <ele>109.98</ele>
        <time>2014-03-08T13:21:17Z</time>
      </trkpt>
      <trkpt lat="49.35799" lon="1.04526">
        <ele>110.9</ele>
        <time>2014-03-08T13:21:31Z</time>
      </trkpt>
      <trkpt lat="49.35753" lon="1.04489">
        <ele>112.33</ele>
        <time>2014-03-08T13:21:45Z</time>
      </trkpt>
      <trkpt lat="49.35707" lon="1.04452">
        <ele>113.1</ele>
        <time>2014-03-08T13:21:58Z</time>
      </trkpt>
      <trkpt lat="49.3566" lon="1.0442">
        <ele>114.36</ele>
        <time>2014-03-08T13:22:11Z</time>
      </trkpt>
      <trkpt lat="49.35616" lon="1.04386">
        <ele>115.55</ele>
        <time>2014-03-08T13:22:24Z</time>
      </trkpt>
      <trkpt lat="49.3557" lon="1.04349">
        <ele>116.99</ele>
        <time>2014-03-08T13:22:37Z</time>
      </trkpt>
      <trkpt lat="49.35526" lon="1.04313">
        <ele>119.08</ele>
        <time>2014-03-08T13:22:51Z</time>
      </trkpt>
      <trkpt lat="49.35481" lon="1.0428">
        <ele>121.02</ele>
        <time>2014-03-08T13:23:05Z</time>
      </trkpt>
      <trkpt lat="49.35436" lon="1.04245">
        <ele>123.2</ele>
        <time>2014-03-08T13:23:20Z</time>
      </trkpt>
      <trkpt lat="49.35392" lon="1.04212">
        <ele>125.04</ele>
        <time>2014-03-08T13:23:34Z</time>
      </trkpt>
      <trkpt lat="49.35351" lon="1.04176">
        <ele>126.34</ele>
        <time>2014-03-08T13:23:48Z</time>
      </trkpt>
      <trkpt lat="49.35322" lon="1.04214">
        <ele>127.5</ele>
        <time>2014-03-08T13:24:12Z</time>
      </trkpt>
      <trkpt lat="49.35302" lon="1.04279">
        <ele>127.58</ele>
        <time>2014-03-08T13:24:26Z</time>
      </trkpt>
      <trkpt lat="49.3528" lon="1.04346">
        <ele>127.43</ele>
        <time>2014-03-08T13:24:40Z</time>
      </trkpt>
      <trkpt lat="49.35239" lon="1.04324">
        <ele>127.2</ele>
        <time>2014-03-08T13:24:54Z</time>
      </trkpt>
      <trkpt lat="49.35193" lon="1.04292">
        <ele>128.57</ele>
        <time>2014-03-08T13:25:07Z</time>
      </trkpt>
      <trkpt lat="49.35146" lon="1.04259">
        <ele>129.17</ele>
        <time>2014-03-08T13:25:21Z</time>
      </trkpt>
      <trkpt lat="49.35098" lon="1.04229">
        <ele>129.4</ele>
        <time>2014-03-08T13:25:40Z</time>
      </trkpt>
      <trkpt lat="49.35048" lon="1.04198">
        <ele>130.54</ele>
        <time>2014-03-08T13:26:05Z</time>
      </trkpt>
      <trkpt lat="49.34998" lon="1.04165">
        <ele>131.11</ele>
        <time>2014-03-08T13:26:29Z</time>
      </trkpt>
      <trkpt lat="49.34948" lon="1.04135">
        <ele>132.27</ele>
        <time>2014-03-08T13:26:50Z</time>
      </trkpt>
      <trkpt lat="49.34902" lon="1.04106">
        <ele>133.01</ele>
        <time>2014-03-08T13:27:17Z</time>
      </trkpt>
      <trkpt lat="49.34881" lon="1.04058">
        <ele>133.97</ele>
        <time>2014-03-08T13:27:41Z</time>
      </trkpt>
      <trkpt lat="49.34883" lon="1.0404">
        <ele>134.34</ele>
        <time>2014-03-08T13:27:50Z</time>
      </trkpt>
      <trkpt lat="49.34884" lon="1.04025">
        <ele>134.77</ele>
        <time>2014-03-08T13:28:54Z</time>
      </trkpt>
      <trkpt lat="49.34887" lon="1.04015">
        <ele>135.15</ele>
        <time>2014-03-08T13:29:02Z</time>
      </trkpt>
      <trkpt lat="49.34886" lon="1.04004">
        <ele>135.22</ele>
        <time>2014-03-08T13:29:13Z</time>
      </trkpt>
      <trkpt lat="49.34894" lon="1.03935">
        <ele>135.52</ele>
        <time>2014-03-08T13:29:29Z</time>
      </trkpt>
      <trkpt lat="49.34902" lon="1.03867">
        <ele>136.98</ele>
        <time>2014-03-08T13:29:44Z</time>
      </trkpt>
      <trkpt lat="49.34908" lon="1.03796">
        <ele>138.63</ele>
        <time>2014-03-08T13:29:59Z</time>
      </trkpt>
      <trkpt lat="49.34912" lon="1.03726">
        <ele>140.36</ele>
        <time>2014-03-08T13:30:13Z</time>
      </trkpt>
      <trkpt lat="49.34919" lon="1.03654">
        <ele>141.81</ele>
        <time>2014-03-08T13:30:27Z</time>
      </trkpt>
      <trkpt lat="49.34922" lon="1.03585">
        <ele>142.72</ele>
        <time>2014-03-08T13:30:39Z</time>
      </trkpt>
      <trkpt lat="49.34925" lon="1.03511">
        <ele>144.19</ele>
        <time>2014-03-08T13:30:51Z</time>
      </trkpt>
      <trkpt lat="49.34929" lon="1.0344">
        <ele>144.52</ele>
        <time>2014-03-08T13:31:02Z</time>
      </trkpt>
      <trkpt lat="49.34935" lon="1.03363">
        <ele>143.59</ele>
        <time>2014-03-08T13:31:12Z</time>
      </trkpt>
      <trkpt lat="49.34946" lon="1.0329">
        <ele>142.25</ele>
        <time>2014-03-08T13:31:20Z</time>
      </trkpt>
      <trkpt lat="49.34962" lon="1.03221">
        <ele>141.16</ele>
        <time>2014-03-08T13:31:27Z</time>
      </trkpt>
      <trkpt lat="49.34981" lon="1.03147">
        <ele>140.08</ele>
        <time>2014-03-08T13:31:35Z</time>
      </trkpt>
      <trkpt lat="49.34972" lon="1.03131">
        <ele>139.35</ele>
        <time>2014-03-08T13:31:47Z</time>
      </trkpt>
      <trkpt lat="49.34948" lon="1.03197">
        <ele>139.03</ele>
        <time>2014-03-08T13:31:59Z</time>
      </trkpt>
      <trkpt lat="49.34926" lon="1.03265">
        <ele>139</ele>
        <time>2014-03-08T13:32:09Z</time>
      </trkpt>
      <trkpt lat="49.34905" lon="1.03332">
        <ele>139.27</ele>
        <time>2014-03-08T13:32:18Z</time>
      </trkpt>
      <trkpt lat="49.34883" lon="1.034">
        <ele>139.8</ele>
        <time>2014-03-08T13:32:29Z</time>
      </trkpt>
      <trkpt lat="49.34859" lon="1.03467">
        <ele>139.68</ele>
        <time>2014-03-08T13:32:43Z</time>
      </trkpt>
      <trkpt lat="49.3483" lon="1.0353">
        <ele>139.27</ele>
        <time>2014-03-08T13:32:55Z</time>
      </trkpt>
      <trkpt lat="49.34797" lon="1.03585">
        <ele>139.31</ele>
        <time>2014-03-08T13:33:06Z</time>
      </trkpt>
      <trkpt lat="49.34762" lon="1.03637">
        <ele>138.57</ele>
        <time>2014-03-08T13:33:17Z</time>
      </trkpt>
      <trkpt lat="49.34725" lon="1.03687">
        <ele>137.74</ele>
        <time>2014-03-08T13:33:27Z</time>
      </trkpt>
      <trkpt lat="49.34685" lon="1.03715">
        <ele>137.07</ele>
        <time>2014-03-08T13:33:37Z</time>
      </trkpt>
      <trkpt lat="49.34638" lon="1.03696">
        <ele>137.77</ele>
        <time>2014-03-08T13:33:48Z</time>
      </trkpt>
      <trkpt lat="49.34591" lon="1.03674">
        <ele>138.56</ele>
        <time>2014-03-08T13:33:59Z</time>
      </trkpt>
      <trkpt lat="49.34545" lon="1.03654">
        <ele>139.82</ele>
        <time>2014-03-08T13:34:10Z</time>
      </trkpt>
      <trkpt lat="49.34497" lon="1.03631">
        <ele>140.96</ele>
        <time>2014-03-08T13:34:22Z</time>
      </trkpt>
      <trkpt lat="49.34449" lon="1.0361">
        <ele>142.12</ele>
        <time>2014-03-08T13:34:34Z</time>
      </trkpt>
      <trkpt lat="49.34403" lon="1.0359">
        <ele>142.64</ele>
        <time>2014-03-08T13:34:45Z</time>
      </trkpt>
      <trkpt lat="49.34359" lon="1.03568">
        <ele>143.05</ele>
        <time>2014-03-08T13:34:55Z</time>
      </trkpt>
      <trkpt lat="49.34313" lon="1.03544">
        <ele>143.85</ele>
        <time>2014-03-08T13:35:04Z</time>
      </trkpt>
      <trkpt lat="49.34266" lon="1.03524">
        <ele>146.79</ele>
        <time>2014-03-08T13:35:16Z</time>
      </trkpt>
      <trkpt lat="49.34256" lon="1.03522">
        <ele>147.05</ele>
        <time>2014-03-08T13:35:24Z</time>
      </trkpt>
      <trkpt lat="49.34249" lon="1.03521">
        <ele>147.09</ele>
        <time>2014-03-08T13:35:40Z</time>
      </trkpt>
      <trkpt lat="49.34203" lon="1.03502">
        <ele>145.87</ele>
        <time>2014-03-08T13:35:55Z</time>
      </trkpt>
      <trkpt lat="49.34158" lon="1.03483">
        <ele>142.77</ele>
        <time>2014-03-08T13:36:02Z</time>
      </trkpt>
      <trkpt lat="49.34112" lon="1.03461">
        <ele>142.21</ele>
        <time>2014-03-08T13:36:10Z</time>
      </trkpt>
      <trkpt lat="49.34066" lon="1.03441">
        <ele>142.07</ele>
        <time>2014-03-08T13:36:18Z</time>
      </trkpt>
      <trkpt lat="49.34016" lon="1.03415">
        <ele>141.8</ele>
        <time>2014-03-08T13:36:28Z</time>
      </trkpt>
      <trkpt lat="49.33969" lon="1.03393">
        <ele>141.23</ele>
        <time>2014-03-08T13:36:36Z</time>
      </trkpt>
      <trkpt lat="49.3392" lon="1.03372">
        <ele>140.45</ele>
        <time>2014-03-08T13:36:45Z</time>
      </trkpt>
      <trkpt lat="49.33873" lon="1.03352">
        <ele>139.1</ele>
        <time>2014-03-08T13:36:53Z</time>
      </trkpt>
      <trkpt lat="49.3383" lon="1.03327">
        <ele>137.85</ele>
        <time>2014-03-08T13:37:01Z</time>
      </trkpt>
      <trkpt lat="49.33818" lon="1.03256">
        <ele>135.56</ele>
        <time>2014-03-08T13:37:12Z</time>
      </trkpt>
      <trkpt lat="49.3383" lon="1.03187">
        <ele>134.76</ele>
        <time>2014-03-08T13:37:21Z</time>
      </trkpt>
      <trkpt lat="49.33848" lon="1.03115">
        <ele>135.09</ele>
        <time>2014-03-08T13:37:30Z</time>
      </trkpt>
      <trkpt lat="49.33855" lon="1.03038">
        <ele>135.4</ele>
        <time>2014-03-08T13:37:40Z</time>
      </trkpt>
      <trkpt lat="49.3383" lon="1.02973">
        <ele>134.58</ele>
        <time>2014-03-08T13:37:49Z</time>
      </trkpt>
      <trkpt lat="49.33798" lon="1.0291">
        <ele>133.22</ele>
        <time>2014-03-08T13:37:57Z</time>
      </trkpt>
      <trkpt lat="49.33765" lon="1.02851">
        <ele>133.72</ele>
        <time>2014-03-08T13:38:06Z</time>
      </trkpt>
      <trkpt lat="49.33737" lon="1.02794">
        <ele>134.77</ele>
        <time>2014-03-08T13:38:15Z</time>
      </trkpt>
      <trkpt lat="49.33711" lon="1.02738">
        <ele>136.06</ele>
        <time>2014-03-08T13:38:25Z</time>
      </trkpt>
      <trkpt lat="49.33682" lon="1.02681">
        <ele>137.62</ele>
        <time>2014-03-08T13:38:36Z</time>
      </trkpt>
      <trkpt lat="49.33652" lon="1.02622">
        <ele>138.2</ele>
        <time>2014-03-08T13:38:47Z</time>
      </trkpt>
      <trkpt lat="49.33623" lon="1.02564">
        <ele>139.37</ele>
        <time>2014-03-08T13:38:58Z</time>
      </trkpt>
      <trkpt lat="49.33592" lon="1.02505">
        <ele>139.5</ele>
        <time>2014-03-08T13:39:09Z</time>
      </trkpt>
      <trkpt lat="49.33562" lon="1.02447">
        <ele>140.11</ele>
        <time>2014-03-08T13:39:20Z</time>
      </trkpt>
      <trkpt lat="49.33531" lon="1.02389">
        <ele>141.03</ele>
        <time>2014-03-08T13:39:31Z</time>
      </trkpt>
      <trkpt lat="49.33501" lon="1.0233">
        <ele>141.46</ele>
        <time>2014-03-08T13:39:42Z</time>
      </trkpt>
      <trkpt lat="49.3347" lon="1.02271">
        <ele>141.72</ele>
        <time>2014-03-08T13:39:53Z</time>
      </trkpt>
      <trkpt lat="49.33441" lon="1.02216">
        <ele>141.8</ele>
        <time>2014-03-08T13:40:03Z</time>
      </trkpt>
      <trkpt lat="49.33412" lon="1.02158">
        <ele>141.97</ele>
        <time>2014-03-08T13:40:13Z</time>
      </trkpt>
      <trkpt lat="49.33384" lon="1.02104">
        <ele>142.21</ele>
        <time>2014-03-08T13:40:22Z</time>
      </trkpt>
      <trkpt lat="49.33354" lon="1.02046">
        <ele>142.55</ele>
        <time>2014-03-08T13:40:31Z</time>
      </trkpt>
      <trkpt lat="49.33325" lon="1.0199">
        <ele>143.08</ele>
        <time>2014-03-08T13:40:41Z</time>
      </trkpt>
      <trkpt lat="49.33289" lon="1.01949">
        <ele>142.75</ele>
        <time>2014-03-08T13:40:57Z</time>
      </trkpt>
      <trkpt lat="49.33242" lon="1.0196">
        <ele>143.02</ele>
        <time>2014-03-08T13:41:08Z</time>
      </trkpt>
      <trkpt lat="49.33197" lon="1.0195">
        <ele>143.14</ele>
        <time>2014-03-08T13:41:18Z</time>
      </trkpt>
      <trkpt lat="49.33154" lon="1.01919">
        <ele>143.68</ele>
        <time>2014-03-08T13:41:28Z</time>
      </trkpt>
      <trkpt lat="49.33108" lon="1.01917">
        <ele>144.03</ele>
        <time>2014-03-08T13:41:39Z</time>
      </trkpt>
      <trkpt lat="49.33062" lon="1.01908">
        <ele>144.15</ele>
        <time>2014-03-08T13:41:49Z</time>
      </trkpt>
      <trkpt lat="49.33013" lon="1.019">
        <ele>143.88</ele>
        <time>2014-03-08T13:41:59Z</time>
      </trkpt>
      <trkpt lat="49.32971" lon="1.01929">
        <ele>143.68</ele>
        <time>2014-03-08T13:42:08Z</time>
      </trkpt>
      <trkpt lat="49.32946" lon="1.01869">
        <ele>143.38</ele>
        <time>2014-03-08T13:42:17Z</time>
      </trkpt>
      <trkpt lat="49.32923" lon="1.01801">
        <ele>143.18</ele>
        <time>2014-03-08T13:42:26Z</time>
      </trkpt>
      <trkpt lat="49.32902" lon="1.01733">
        <ele>142.68</ele>
        <time>2014-03-08T13:42:35Z</time>
      </trkpt>
      <trkpt lat="49.3291" lon="1.01663">
        <ele>142.35</ele>
        <time>2014-03-08T13:42:45Z</time>
      </trkpt>
      <trkpt lat="49.32943" lon="1.01602">
        <ele>142.21</ele>
        <time>2014-03-08T13:42:55Z</time>
      </trkpt>
      <trkpt lat="49.32968" lon="1.01542">
        <ele>142.17</ele>
        <time>2014-03-08T13:43:04Z</time>
      </trkpt>
      <trkpt lat="49.32992" lon="1.01477">
        <ele>141.97</ele>
        <time>2014-03-08T13:43:13Z</time>
      </trkpt>
      <trkpt lat="49.33023" lon="1.01421">
        <ele>141.66</ele>
        <time>2014-03-08T13:43:22Z</time>
      </trkpt>
      <trkpt lat="49.33065" lon="1.01381">
        <ele>141.8</ele>
        <time>2014-03-08T13:43:32Z</time>
      </trkpt>
      <trkpt lat="49.33112" lon="1.01351">
        <ele>141.66</ele>
        <time>2014-03-08T13:43:42Z</time>
      </trkpt>
      <trkpt lat="49.3315" lon="1.01304">
        <ele>141.69</ele>
        <time>2014-03-08T13:43:52Z</time>
      </trkpt>
      <trkpt lat="49.33178" lon="1.01241">
        <ele>141.76</ele>
        <time>2014-03-08T13:44:01Z</time>
      </trkpt>
      <trkpt lat="49.33192" lon="1.0117">
        <ele>141.22</ele>
        <time>2014-03-08T13:44:10Z</time>
      </trkpt>
      <trkpt lat="49.33224" lon="1.01107">
        <ele>140.28</ele>
        <time>2014-03-08T13:44:28Z</time>
      </trkpt>
      <trkpt lat="49.33262" lon="1.01049">
        <ele>138.15</ele>
        <time>2014-03-08T13:44:47Z</time>
      </trkpt>
      <trkpt lat="49.33265" lon="1.00972">
        <ele>138.79</ele>
        <time>2014-03-08T13:45:07Z</time>
      </trkpt>
      <trkpt lat="49.33289" lon="1.0089">
        <ele>140.04</ele>
        <time>2014-03-08T13:45:30Z</time>
      </trkpt>
      <trkpt lat="49.33343" lon="1.00893">
        <ele>141</ele>
        <time>2014-03-08T13:45:49Z</time>
      </trkpt>
      <trkpt lat="49.33398" lon="1.00897">
        <ele>142.2</ele>
        <time>2014-03-08T13:46:06Z</time>
      </trkpt>
      <trkpt lat="49.33445" lon="1.00938">
        <ele>143.39</ele>
        <time>2014-03-08T13:46:21Z</time>
      </trkpt>
      <trkpt lat="49.33493" lon="1.00971">
        <ele>144.5</ele>
        <time>2014-03-08T13:46:33Z</time>
      </trkpt>
      <trkpt lat="49.33542" lon="1.01006">
        <ele>145.4</ele>
        <time>2014-03-08T13:46:45Z</time>
      </trkpt>
      <trkpt lat="49.33591" lon="1.01003">
        <ele>145.38</ele>
        <time>2014-03-08T13:47:04Z</time>
      </trkpt>
      <trkpt lat="49.33635" lon="1.0096">
        <ele>145.8</ele>
        <time>2014-03-08T13:47:23Z</time>
      </trkpt>
      <trkpt lat="49.33626" lon="1.00892">
        <ele>146.25</ele>
        <time>2014-03-08T13:47:39Z</time>
      </trkpt>
      <trkpt lat="49.33607" lon="1.00825">
        <ele>145.85</ele>
        <time>2014-03-08T13:47:48Z</time>
      </trkpt>
      <trkpt lat="49.33587" lon="1.00762">
        <ele>145.4</ele>
        <time>2014-03-08T13:47:58Z</time>
      </trkpt>
      <trkpt lat="49.33565" lon="1.00696">
        <ele>144.73</ele>
        <time>2014-03-08T13:48:08Z</time>
      </trkpt>
      <trkpt lat="49.33544" lon="1.00629">
        <ele>144.48</ele>
        <time>2014-03-08T13:48:20Z</time>
      </trkpt>
      <trkpt lat="49.33521" lon="1.00561">
        <ele>143.81</ele>
        <time>2014-03-08T13:48:32Z</time>
      </trkpt>
      <trkpt lat="49.33499" lon="1.00496">
        <ele>143.04</ele>
        <time>2014-03-08T13:48:43Z</time>
      </trkpt>
      <trkpt lat="49.33477" lon="1.00432">
        <ele>142.44</ele>
        <time>2014-03-08T13:48:53Z</time>
      </trkpt>
      <trkpt lat="49.33456" lon="1.00361">
        <ele>141.97</ele>
        <time>2014-03-08T13:49:03Z</time>
      </trkpt>
      <trkpt lat="49.33434" lon="1.00293">
        <ele>141.07</ele>
        <time>2014-03-08T13:49:12Z</time>
      </trkpt>
      <trkpt lat="49.33411" lon="1.00223">
        <ele>140.37</ele>
        <time>2014-03-08T13:49:21Z</time>
      </trkpt>
      <trkpt lat="49.33388" lon="1.00154">
        <ele>140.82</ele>
        <time>2014-03-08T13:49:30Z</time>
      </trkpt>
      <trkpt lat="49.33367" lon="1.00092">
        <ele>141.18</ele>
        <time>2014-03-08T13:49:38Z</time>
      </trkpt>
      <trkpt lat="49.33345" lon="1.00024">
        <ele>141.77</ele>
        <time>2014-03-08T13:49:47Z</time>
      </trkpt>
      <trkpt lat="49.33323" lon="0.99959">
        <ele>141.86</ele>
        <time>2014-03-08T13:49:56Z</time>
      </trkpt>
      <trkpt lat="49.33302" lon="0.99897">
        <ele>141.95</ele>
        <time>2014-03-08T13:50:05Z</time>
      </trkpt>
      <trkpt lat="49.33282" lon="0.99834">
        <ele>141.64</ele>
        <time>2014-03-08T13:50:14Z</time>
      </trkpt>
      <trkpt lat="49.33262" lon="0.99769">
        <ele>141.08</ele>
        <time>2014-03-08T13:50:23Z</time>
      </trkpt>
      <trkpt lat="49.33261" lon="0.9973">
        <ele>140.27</ele>
        <time>2014-03-08T13:50:38Z</time>
      </trkpt>
      <trkpt lat="49.33258" lon="0.99723">
        <ele>140.31</ele>
        <time>2014-03-08T13:50:44Z</time>
      </trkpt>
      <trkpt lat="49.33226" lon="0.9967">
        <ele>140.1</ele>
        <time>2014-03-08T13:50:58Z</time>
      </trkpt>
      <trkpt lat="49.33205" lon="0.99603">
        <ele>140.18</ele>
        <time>2014-03-08T13:51:09Z</time>
      </trkpt>
      <trkpt lat="49.33183" lon="0.99538">
        <ele>140.32</ele>
        <time>2014-03-08T13:51:20Z</time>
      </trkpt>
      <trkpt lat="49.33161" lon="0.99469">
        <ele>140.65</ele>
        <time>2014-03-08T13:51:31Z</time>
      </trkpt>
      <trkpt lat="49.33139" lon="0.99404">
        <ele>140.35</ele>
        <time>2014-03-08T13:51:41Z</time>
      </trkpt>
      <trkpt lat="49.33115" lon="0.99333">
        <ele>140.1</ele>
        <time>2014-03-08T13:51:52Z</time>
      </trkpt>
      <trkpt lat="49.33092" lon="0.99267">
        <ele>139.53</ele>
        <time>2014-03-08T13:52:02Z</time>
      </trkpt>
      <trkpt lat="49.33095" lon="0.99194">
        <ele>138.53</ele>
        <time>2014-03-08T13:52:12Z</time>
      </trkpt>
      <trkpt lat="49.33103" lon="0.99122">
        <ele>137.37</ele>
        <time>2014-03-08T13:52:21Z</time>
      </trkpt>
      <trkpt lat="49.33113" lon="0.99049">
        <ele>136.5</ele>
        <time>2014-03-08T13:52:30Z</time>
      </trkpt>
      <trkpt lat="49.33121" lon="0.98965">
        <ele>135.01</ele>
        <time>2014-03-08T13:52:38Z</time>
      </trkpt>
      <trkpt lat="49.33129" lon="0.98887">
        <ele>132.85</ele>
        <time>2014-03-08T13:52:44Z</time>
      </trkpt>
      <trkpt lat="49.33114" lon="0.98818">
        <ele>130.16</ele>
        <time>2014-03-08T13:52:49Z</time>
      </trkpt>
      <trkpt lat="49.33086" lon="0.98749">
        <ele>127.33</ele>
        <time>2014-03-08T13:52:54Z</time>
      </trkpt>
      <trkpt lat="49.33059" lon="0.98676">
        <ele>123.76</ele>
        <time>2014-03-08T13:52:59Z</time>
      </trkpt>
      <trkpt lat="49.33044" lon="0.98605">
        <ele>120.63</ele>
        <time>2014-03-08T13:53:03Z</time>
      </trkpt>
      <trkpt lat="49.33038" lon="0.9853">
        <ele>115.34</ele>
        <time>2014-03-08T13:53:07Z</time>
      </trkpt>
      <trkpt lat="49.33028" lon="0.98459">
        <ele>110.76</ele>
        <time>2014-03-08T13:53:11Z</time>
      </trkpt>
      <trkpt lat="49.33008" lon="0.98396">
        <ele>106.37</ele>
        <time>2014-03-08T13:53:15Z</time>
      </trkpt>
      <trkpt lat="49.32978" lon="0.98325">
        <ele>101.31</ele>
        <time>2014-03-08T13:53:20Z</time>
      </trkpt>
      <trkpt lat="49.3296" lon="0.98262">
        <ele>96.18</ele>
        <time>2014-03-08T13:53:26Z</time>
      </trkpt>
      <trkpt lat="49.32969" lon="0.98193">
        <ele>90.15</ele>
        <time>2014-03-08T13:53:33Z</time>
      </trkpt>
      <trkpt lat="49.32988" lon="0.98118">
        <ele>87.7</ele>
        <time>2014-03-08T13:53:40Z</time>
      </trkpt>
      <trkpt lat="49.33009" lon="0.98051">
        <ele>87.46</ele>
        <time>2014-03-08T13:53:47Z</time>
      </trkpt>
      <trkpt lat="49.33041" lon="0.97988">
        <ele>87.52</ele>
        <time>2014-03-08T13:53:55Z</time>
      </trkpt>
      <trkpt lat="49.33073" lon="0.97927">
        <ele>87.93</ele>
        <time>2014-03-08T13:54:03Z</time>
      </trkpt>
      <trkpt lat="49.33115" lon="0.97901">
        <ele>88.38</ele>
        <time>2014-03-08T13:54:11Z</time>
      </trkpt>
      <trkpt lat="49.33157" lon="0.97942">
        <ele>89.01</ele>
        <time>2014-03-08T13:54:20Z</time>
      </trkpt>
      <trkpt lat="49.33193" lon="0.97984">
        <ele>89.45</ele>
        <time>2014-03-08T13:54:28Z</time>
      </trkpt>
      <trkpt lat="49.3323" lon="0.98035">
        <ele>89.77</ele>
        <time>2014-03-08T13:54:36Z</time>
      </trkpt>
      <trkpt lat="49.33265" lon="0.98092">
        <ele>89.99</ele>
        <time>2014-03-08T13:54:44Z</time>
      </trkpt>
      <trkpt lat="49.33287" lon="0.98156">
        <ele>90.19</ele>
        <time>2014-03-08T13:54:51Z</time>
      </trkpt>
      <trkpt lat="49.33307" lon="0.98227">
        <ele>90.8</ele>
        <time>2014-03-08T13:54:59Z</time>
      </trkpt>
      <trkpt lat="49.33346" lon="0.98266">
        <ele>91.21</ele>
        <time>2014-03-08T13:55:07Z</time>
      </trkpt>
      <trkpt lat="49.33368" lon="0.98212">
        <ele>91.39</ele>
        <time>2014-03-08T13:55:15Z</time>
      </trkpt>
      <trkpt lat="49.33371" lon="0.98137">
        <ele>91.57</ele>
        <time>2014-03-08T13:55:22Z</time>
      </trkpt>
      <trkpt lat="49.33381" lon="0.98057">
        <ele>91.9</ele>
        <time>2014-03-08T13:55:29Z</time>
      </trkpt>
      <trkpt lat="49.33398" lon="0.9798">
        <ele>92.65</ele>
        <time>2014-03-08T13:55:36Z</time>
      </trkpt>
      <trkpt lat="49.33437" lon="0.97931">
        <ele>93.01</ele>
        <time>2014-03-08T13:55:43Z</time>
      </trkpt>
      <trkpt lat="49.33454" lon="0.97859">
        <ele>93.04</ele>
        <time>2014-03-08T13:55:50Z</time>
      </trkpt>
      <trkpt lat="49.33461" lon="0.97786">
        <ele>93.01</ele>
        <time>2014-03-08T13:55:56Z</time>
      </trkpt>
      <trkpt lat="49.33478" lon="0.97707">
        <ele>93.16</ele>
        <time>2014-03-08T13:56:02Z</time>
      </trkpt>
      <trkpt lat="49.33506" lon="0.97645">
        <ele>93.22</ele>
        <time>2014-03-08T13:56:07Z</time>
      </trkpt>
      <trkpt lat="49.33539" lon="0.97594">
        <ele>93.52</ele>
        <time>2014-03-08T13:56:12Z</time>
      </trkpt>
      <trkpt lat="49.33583" lon="0.976">
        <ele>93.78</ele>
        <time>2014-03-08T13:56:17Z</time>
      </trkpt>
      <trkpt lat="49.3363" lon="0.97607">
        <ele>94.47</ele>
        <time>2014-03-08T13:56:23Z</time>
      </trkpt>
      <trkpt lat="49.33633" lon="0.97533">
        <ele>95.11</ele>
        <time>2014-03-08T13:56:30Z</time>
      </trkpt>
      <trkpt lat="49.33613" lon="0.97462">
        <ele>94.91</ele>
        <time>2014-03-08T13:56:37Z</time>
      </trkpt>
      <trkpt lat="49.3358" lon="0.97411">
        <ele>95.08</ele>
        <time>2014-03-08T13:56:44Z</time>
      </trkpt>
      <trkpt lat="49.33552" lon="0.97353">
        <ele>95.22</ele>
        <time>2014-03-08T13:56:51Z</time>
      </trkpt>
      <trkpt lat="49.33572" lon="0.9728">
        <ele>95.8</ele>
        <time>2014-03-08T13:56:58Z</time>
      </trkpt>
      <trkpt lat="49.33598" lon="0.97221">
        <ele>96.05</ele>
        <time>2014-03-08T13:57:04Z</time>
      </trkpt>
      <trkpt lat="49.3362" lon="0.97155">
        <ele>96.36</ele>
        <time>2014-03-08T13:57:10Z</time>
      </trkpt>
      <trkpt lat="49.33636" lon="0.97089">
        <ele>96.49</ele>
        <time>2014-03-08T13:57:16Z</time>
      </trkpt>
      <trkpt lat="49.33654" lon="0.97016">
        <ele>97.01</ele>
        <time>2014-03-08T13:57:23Z</time>
      </trkpt>
      <trkpt lat="49.33672" lon="0.96939">
        <ele>97.61</ele>
        <time>2014-03-08T13:57:30Z</time>
      </trkpt>
      <trkpt lat="49.33683" lon="0.96861">
        <ele>98.08</ele>
        <time>2014-03-08T13:57:37Z</time>
      </trkpt>
      <trkpt lat="49.33685" lon="0.9679">
        <ele>98.56</ele>
        <time>2014-03-08T13:57:43Z</time>
      </trkpt>
      <trkpt lat="49.33681" lon="0.96716">
        <ele>98.86</ele>
        <time>2014-03-08T13:57:49Z</time>
      </trkpt>
      <trkpt lat="49.33676" lon="0.96645">
        <ele>99.16</ele>
        <time>2014-03-08T13:57:55Z</time>
      </trkpt>
      <trkpt lat="49.33668" lon="0.96565">
        <ele>99.36</ele>
        <time>2014-03-08T13:58:02Z</time>
      </trkpt>
      <trkpt lat="49.33661" lon="0.96491">
        <ele>99.6</ele>
        <time>2014-03-08T13:58:09Z</time>
      </trkpt>
      <trkpt lat="49.33667" lon="0.96414">
        <ele>99.7</ele>
        <time>2014-03-08T13:58:16Z</time>
      </trkpt>
      <trkpt lat="49.33697" lon="0.96356">
        <ele>99.93</ele>
        <time>2014-03-08T13:58:23Z</time>
      </trkpt>
      <trkpt lat="49.33743" lon="0.9633">
        <ele>100.71</ele>
        <time>2014-03-08T13:58:30Z</time>
      </trkpt>
      <trkpt lat="49.33787" lon="0.9631">
        <ele>101.31</ele>
        <time>2014-03-08T13:58:37Z</time>
      </trkpt>
      <trkpt lat="49.3383" lon="0.96282">
        <ele>101.5</ele>
        <time>2014-03-08T13:58:44Z</time>
      </trkpt>
      <trkpt lat="49.33874" lon="0.9625">
        <ele>101.94</ele>
        <time>2014-03-08T13:58:51Z</time>
      </trkpt>
      <trkpt lat="49.33918" lon="0.96223">
        <ele>102.42</ele>
        <time>2014-03-08T13:58:58Z</time>
      </trkpt>
      <trkpt lat="49.3396" lon="0.96182">
        <ele>103.11</ele>
        <time>2014-03-08T13:59:05Z</time>
      </trkpt>
      <trkpt lat="49.33987" lon="0.9613">
        <ele>102.02</ele>
        <time>2014-03-08T13:59:16Z</time>
      </trkpt>
      <trkpt lat="49.33987" lon="0.9613">
        <ele>101.57</ele>
        <time>2014-03-08T13:59:19Z</time>
      </trkpt>
      <trkpt lat="49.33984" lon="0.96123">
        <ele>101.31</ele>
        <time>2014-03-08T14:00:52Z</time>
      </trkpt>
      <trkpt lat="49.34006" lon="0.96055">
        <ele>100.25</ele>
        <time>2014-03-08T14:01:02Z</time>
      </trkpt>
      <trkpt lat="49.34018" lon="0.95988">
        <ele>98.77</ele>
        <time>2014-03-08T14:01:08Z</time>
      </trkpt>
      <trkpt lat="49.34015" lon="0.95913">
        <ele>97.02</ele>
        <time>2014-03-08T14:01:13Z</time>
      </trkpt>
      <trkpt lat="49.34017" lon="0.95826">
        <ele>94.7</ele>
        <time>2014-03-08T14:01:18Z</time>
      </trkpt>
      <trkpt lat="49.34033" lon="0.95759">
        <ele>92.51</ele>
        <time>2014-03-08T14:01:22Z</time>
      </trkpt>
      <trkpt lat="49.34043" lon="0.95686">
        <ele>89.95</ele>
        <time>2014-03-08T14:01:27Z</time>
      </trkpt>
      <trkpt lat="49.34069" lon="0.95624">
        <ele>87.49</ele>
        <time>2014-03-08T14:01:37Z</time>
      </trkpt>
      <trkpt lat="49.34088" lon="0.95564">
        <ele>88.28</ele>
        <time>2014-03-08T14:01:45Z</time>
      </trkpt>
      <trkpt lat="49.34104" lon="0.95491">
        <ele>86.88</ele>
        <time>2014-03-08T14:01:51Z</time>
      </trkpt>
      <trkpt lat="49.34121" lon="0.95422">
        <ele>84.66</ele>
        <time>2014-03-08T14:01:56Z</time>
      </trkpt>
      <trkpt lat="49.34139" lon="0.9535">
        <ele>82.36</ele>
        <time>2014-03-08T14:02:01Z</time>
      </trkpt>
      <trkpt lat="49.34156" lon="0.95274">
        <ele>79.55</ele>
        <time>2014-03-08T14:02:06Z</time>
      </trkpt>
      <trkpt lat="49.34176" lon="0.95199">
        <ele>77.45</ele>
        <time>2014-03-08T14:02:11Z</time>
      </trkpt>
      <trkpt lat="49.34203" lon="0.95124">
        <ele>74.8</ele>
        <time>2014-03-08T14:02:16Z</time>
      </trkpt>
      <trkpt lat="49.34228" lon="0.95048">
        <ele>72.47</ele>
        <time>2014-03-08T14:02:21Z</time>
      </trkpt>
      <trkpt lat="49.34244" lon="0.94967">
        <ele>70.05</ele>
        <time>2014-03-08T14:02:26Z</time>
      </trkpt>
      <trkpt lat="49.34267" lon="0.94894">
        <ele>67.75</ele>
        <time>2014-03-08T14:02:31Z</time>
      </trkpt>
      <trkpt lat="49.34274" lon="0.94819">
        <ele>65.93</ele>
        <time>2014-03-08T14:02:36Z</time>
      </trkpt>
      <trkpt lat="49.34318" lon="0.94777">
        <ele>64.39</ele>
        <time>2014-03-08T14:02:41Z</time>
      </trkpt>
      <trkpt lat="49.34343" lon="0.94706">
        <ele>62.59</ele>
        <time>2014-03-08T14:02:46Z</time>
      </trkpt>
      <trkpt lat="49.34376" lon="0.94639">
        <ele>59.96</ele>
        <time>2014-03-08T14:02:51Z</time>
      </trkpt>
      <trkpt lat="49.34396" lon="0.94567">
        <ele>58.05</ele>
        <time>2014-03-08T14:02:56Z</time>
      </trkpt>
      <trkpt lat="49.34377" lon="0.94497">
        <ele>56.28</ele>
        <time>2014-03-08T14:03:01Z</time>
      </trkpt>
      <trkpt lat="49.34363" lon="0.94427">
        <ele>54.92</ele>
        <time>2014-03-08T14:03:06Z</time>
      </trkpt>
      <trkpt lat="49.34411" lon="0.94408">
        <ele>52.29</ele>
        <time>2014-03-08T14:03:12Z</time>
      </trkpt>
      <trkpt lat="49.34464" lon="0.94413">
        <ele>50.15</ele>
        <time>2014-03-08T14:03:17Z</time>
      </trkpt>
      <trkpt lat="49.34498" lon="0.94353">
        <ele>48.25</ele>
        <time>2014-03-08T14:03:22Z</time>
      </trkpt>
      <trkpt lat="49.34524" lon="0.94274">
        <ele>45.87</ele>
        <time>2014-03-08T14:03:27Z</time>
      </trkpt>
      <trkpt lat="49.34555" lon="0.94206">
        <ele>43.27</ele>
        <time>2014-03-08T14:03:32Z</time>
      </trkpt>
      <trkpt lat="49.34583" lon="0.94137">
        <ele>41.29</ele>
        <time>2014-03-08T14:03:37Z</time>
      </trkpt>
      <trkpt lat="49.34588" lon="0.94059">
        <ele>39.65</ele>
        <time>2014-03-08T14:03:42Z</time>
      </trkpt>
      <trkpt lat="49.34628" lon="0.94021">
        <ele>37.8</ele>
        <time>2014-03-08T14:03:47Z</time>
      </trkpt>
      <trkpt lat="49.34666" lon="0.93982">
        <ele>35.79</ele>
        <time>2014-03-08T14:03:52Z</time>
      </trkpt>
      <trkpt lat="49.34694" lon="0.9392">
        <ele>33.73</ele>
        <time>2014-03-08T14:03:57Z</time>
      </trkpt>
      <trkpt lat="49.34722" lon="0.93858">
        <ele>31.48</ele>
        <time>2014-03-08T14:04:02Z</time>
      </trkpt>
      <trkpt lat="49.34753" lon="0.938">
        <ele>29.26</ele>
        <time>2014-03-08T14:04:07Z</time>
      </trkpt>
      <trkpt lat="49.34784" lon="0.93743">
        <ele>28.23</ele>
        <time>2014-03-08T14:04:12Z</time>
      </trkpt>
      <trkpt lat="49.34814" lon="0.9369">
        <ele>28.07</ele>
        <time>2014-03-08T14:04:17Z</time>
      </trkpt>
      <trkpt lat="49.34843" lon="0.93626">
        <ele>28.18</ele>
        <time>2014-03-08T14:04:23Z</time>
      </trkpt>
      <trkpt lat="49.34867" lon="0.93561">
        <ele>28.31</ele>
        <time>2014-03-08T14:04:29Z</time>
      </trkpt>
      <trkpt lat="49.34889" lon="0.93497">
        <ele>28.25</ele>
        <time>2014-03-08T14:04:35Z</time>
      </trkpt>
      <trkpt lat="49.3492" lon="0.9344">
        <ele>27.67</ele>
        <time>2014-03-08T14:04:41Z</time>
      </trkpt>
      <trkpt lat="49.34952" lon="0.93382">
        <ele>26.83</ele>
        <time>2014-03-08T14:04:47Z</time>
      </trkpt>
      <trkpt lat="49.34983" lon="0.93324">
        <ele>26.34</ele>
        <time>2014-03-08T14:04:53Z</time>
      </trkpt>
      <trkpt lat="49.35016" lon="0.93268">
        <ele>26.19</ele>
        <time>2014-03-08T14:05:00Z</time>
      </trkpt>
      <trkpt lat="49.35055" lon="0.93308">
        <ele>25.27</ele>
        <time>2014-03-08T14:05:07Z</time>
      </trkpt>
      <trkpt lat="49.35094" lon="0.93349">
        <ele>23.48</ele>
        <time>2014-03-08T14:05:14Z</time>
      </trkpt>
      <trkpt lat="49.35098" lon="0.93354">
        <ele>22.98</ele>
        <time>2014-03-08T14:05:21Z</time>
      </trkpt>
      <trkpt lat="49.35109" lon="0.93353">
        <ele>22.93</ele>
        <time>2014-03-08T14:08:21Z</time>
      </trkpt>
      <trkpt lat="49.3514" lon="0.93375">
        <ele>20.08</ele>
        <time>2014-03-08T14:08:55Z</time>
      </trkpt>
      <trkpt lat="49.35152" lon="0.9338">
        <ele>20.18</ele>
        <time>2014-03-08T14:10:38Z</time>
      </trkpt>
      <trkpt lat="49.35194" lon="0.93415">
        <ele>21</ele>
        <time>2014-03-08T14:11:05Z</time>
      </trkpt>
      <trkpt lat="49.35231" lon="0.93462">
        <ele>20.82</ele>
        <time>2014-03-08T14:11:27Z</time>
      </trkpt>
      <trkpt lat="49.35252" lon="0.93506">
        <ele>21.74</ele>
        <time>2014-03-08T14:11:44Z</time>
      </trkpt>
      <trkpt lat="49.35257" lon="0.93516">
        <ele>21.88</ele>
        <time>2014-03-08T14:11:48Z</time>
      </trkpt>
      <trkpt lat="49.35293" lon="0.93556">
        <ele>20.86</ele>
        <time>2014-03-08T14:12:11Z</time>
      </trkpt>
      <trkpt lat="49.3532" lon="0.93562">
        <ele>20.34</ele>
        <time>2014-03-08T14:12:34Z</time>
      </trkpt>
      <trkpt lat="49.35329" lon="0.93545">
        <ele>21.13</ele>
        <time>2014-03-08T14:13:26Z</time>
      </trkpt>
      <trkpt lat="49.3536" lon="0.93503">
        <ele>24.04</ele>
        <time>2014-03-08T14:13:45Z</time>
      </trkpt>
      <trkpt lat="49.3537" lon="0.93499">
        <ele>24.48</ele>
        <time>2014-03-08T14:14:29Z</time>
      </trkpt>
      <trkpt lat="49.3539" lon="0.93435">
        <ele>24.06</ele>
        <time>2014-03-08T14:14:45Z</time>
      </trkpt>
      <trkpt lat="49.35414" lon="0.93375">
        <ele>23.94</ele>
        <time>2014-03-08T14:15:00Z</time>
      </trkpt>
      <trkpt lat="49.35439" lon="0.93315">
        <ele>24.07</ele>
        <time>2014-03-08T14:15:14Z</time>
      </trkpt>
      <trkpt lat="49.35468" lon="0.93259">
        <ele>24.14</ele>
        <time>2014-03-08T14:15:29Z</time>
      </trkpt>
      <trkpt lat="49.35498" lon="0.93204">
        <ele>24.18</ele>
        <time>2014-03-08T14:15:43Z</time>
      </trkpt>
      <trkpt lat="49.35528" lon="0.93151">
        <ele>24.12</ele>
        <time>2014-03-08T14:15:55Z</time>
      </trkpt>
      <trkpt lat="49.35561" lon="0.93095">
        <ele>24.12</ele>
        <time>2014-03-08T14:16:06Z</time>
      </trkpt>
      <trkpt lat="49.35596" lon="0.9304">
        <ele>24.17</ele>
        <time>2014-03-08T14:16:17Z</time>
      </trkpt>
      <trkpt lat="49.35628" lon="0.92991">
        <ele>24.07</ele>
        <time>2014-03-08T14:16:27Z</time>
      </trkpt>
      <trkpt lat="49.35662" lon="0.92944">
        <ele>24.25</ele>
        <time>2014-03-08T14:16:37Z</time>
      </trkpt>
      <trkpt lat="49.35697" lon="0.92898">
        <ele>24.4</ele>
        <time>2014-03-08T14:16:47Z</time>
      </trkpt>
      <trkpt lat="49.35731" lon="0.92853">
        <ele>24.39</ele>
        <time>2014-03-08T14:16:57Z</time>
      </trkpt>
      <trkpt lat="49.35767" lon="0.9281">
        <ele>24.18</ele>
        <time>2014-03-08T14:17:07Z</time>
      </trkpt>
      <trkpt lat="49.35803" lon="0.9277">
        <ele>24.45</ele>
        <time>2014-03-08T14:17:17Z</time>
      </trkpt>
      <trkpt lat="49.35842" lon="0.92727">
        <ele>24.54</ele>
        <time>2014-03-08T14:17:28Z</time>
      </trkpt>
      <trkpt lat="49.35881" lon="0.92686">
        <ele>24.67</ele>
        <time>2014-03-08T14:17:40Z</time>
      </trkpt>
      <trkpt lat="49.35921" lon="0.92647">
        <ele>24.53</ele>
        <time>2014-03-08T14:17:50Z</time>
      </trkpt>
      <trkpt lat="49.35961" lon="0.92608">
        <ele>24.31</ele>
        <time>2014-03-08T14:17:59Z</time>
      </trkpt>
      <trkpt lat="49.36004" lon="0.92568">
        <ele>24.27</ele>
        <time>2014-03-08T14:18:09Z</time>
      </trkpt>
      <trkpt lat="49.36045" lon="0.9253">
        <ele>24.19</ele>
        <time>2014-03-08T14:18:19Z</time>
      </trkpt>
      <trkpt lat="49.36087" lon="0.92497">
        <ele>24.53</ele>
        <time>2014-03-08T14:18:29Z</time>
      </trkpt>
      <trkpt lat="49.3613" lon="0.92461">
        <ele>24.49</ele>
        <time>2014-03-08T14:18:39Z</time>
      </trkpt>
      <trkpt lat="49.36175" lon="0.92426">
        <ele>24.07</ele>
        <time>2014-03-08T14:18:49Z</time>
      </trkpt>
      <trkpt lat="49.36216" lon="0.92394">
        <ele>24.32</ele>
        <time>2014-03-08T14:18:58Z</time>
      </trkpt>
      <trkpt lat="49.36261" lon="0.92363">
        <ele>24.67</ele>
        <time>2014-03-08T14:19:08Z</time>
      </trkpt>
      <trkpt lat="49.36305" lon="0.92332">
        <ele>24.8</ele>
        <time>2014-03-08T14:19:18Z</time>
      </trkpt>
      <trkpt lat="49.36347" lon="0.92303">
        <ele>24.74</ele>
        <time>2014-03-08T14:19:28Z</time>
      </trkpt>
      <trkpt lat="49.36392" lon="0.92273">
        <ele>24.82</ele>
        <time>2014-03-08T14:19:39Z</time>
      </trkpt>
      <trkpt lat="49.36436" lon="0.92244">
        <ele>25.1</ele>
        <time>2014-03-08T14:19:50Z</time>
      </trkpt>
      <trkpt lat="49.36482" lon="0.9222">
        <ele>25.09</ele>
        <time>2014-03-08T14:20:00Z</time>
      </trkpt>
      <trkpt lat="49.36528" lon="0.92193">
        <ele>24.81</ele>
        <time>2014-03-08T14:20:10Z</time>
      </trkpt>
      <trkpt lat="49.36572" lon="0.9217">
        <ele>24.96</ele>
        <time>2014-03-08T14:20:19Z</time>
      </trkpt>
      <trkpt lat="49.36619" lon="0.92148">
        <ele>24.59</ele>
        <time>2014-03-08T14:20:30Z</time>
      </trkpt>
      <trkpt lat="49.36664" lon="0.92126">
        <ele>24.3</ele>
        <time>2014-03-08T14:20:41Z</time>
      </trkpt>
      <trkpt lat="49.36711" lon="0.92106">
        <ele>24.64</ele>
        <time>2014-03-08T14:20:52Z</time>
      </trkpt>
      <trkpt lat="49.3676" lon="0.92089">
        <ele>24.58</ele>
        <time>2014-03-08T14:21:03Z</time>
      </trkpt>
      <trkpt lat="49.36806" lon="0.92073">
        <ele>24.53</ele>
        <time>2014-03-08T14:21:13Z</time>
      </trkpt>
      <trkpt lat="49.36853" lon="0.9206">
        <ele>24.68</ele>
        <time>2014-03-08T14:21:23Z</time>
      </trkpt>
      <trkpt lat="49.36898" lon="0.9205">
        <ele>24.52</ele>
        <time>2014-03-08T14:21:33Z</time>
      </trkpt>
      <trkpt lat="49.36947" lon="0.92041">
        <ele>24.52</ele>
        <time>2014-03-08T14:21:44Z</time>
      </trkpt>
      <trkpt lat="49.36995" lon="0.92035">
        <ele>24.74</ele>
        <time>2014-03-08T14:21:55Z</time>
      </trkpt>
      <trkpt lat="49.37045" lon="0.92029">
        <ele>24.63</ele>
        <time>2014-03-08T14:22:06Z</time>
      </trkpt>
      <trkpt lat="49.37092" lon="0.92023">
        <ele>24.42</ele>
        <time>2014-03-08T14:22:16Z</time>
      </trkpt>
      <trkpt lat="49.37141" lon="0.92016">
        <ele>24.63</ele>
        <time>2014-03-08T14:22:27Z</time>
      </trkpt>
      <trkpt lat="49.37186" lon="0.92009">
        <ele>24.81</ele>
        <time>2014-03-08T14:22:39Z</time>
      </trkpt>
      <trkpt lat="49.37235" lon="0.92004">
        <ele>24.29</ele>
        <time>2014-03-08T14:22:50Z</time>
      </trkpt>
      <trkpt lat="49.37282" lon="0.91997">
        <ele>24.38</ele>
        <time>2014-03-08T14:23:01Z</time>
      </trkpt>
      <trkpt lat="49.37329" lon="0.9199">
        <ele>24.79</ele>
        <time>2014-03-08T14:23:12Z</time>
      </trkpt>
      <trkpt lat="49.37374" lon="0.91983">
        <ele>24.65</ele>
        <time>2014-03-08T14:23:22Z</time>
      </trkpt>
      <trkpt lat="49.37421" lon="0.91976">
        <ele>24.46</ele>
        <time>2014-03-08T14:23:32Z</time>
      </trkpt>
      <trkpt lat="49.37469" lon="0.9197">
        <ele>24.17</ele>
        <time>2014-03-08T14:23:42Z</time>
      </trkpt>
      <trkpt lat="49.37516" lon="0.91964">
        <ele>24.05</ele>
        <time>2014-03-08T14:23:52Z</time>
      </trkpt>
      <trkpt lat="49.37563" lon="0.91958">
        <ele>24.1</ele>
        <time>2014-03-08T14:24:02Z</time>
      </trkpt>
      <trkpt lat="49.37609" lon="0.91955">
        <ele>24.23</ele>
        <time>2014-03-08T14:24:13Z</time>
      </trkpt>
      <trkpt lat="49.37654" lon="0.91949">
        <ele>24.42</ele>
        <time>2014-03-08T14:24:24Z</time>
      </trkpt>
      <trkpt lat="49.3767" lon="0.92006">
        <ele>24.16</ele>
        <time>2014-03-08T14:24:37Z</time>
      </trkpt>
      <trkpt lat="49.37675" lon="0.92062">
        <ele>24.12</ele>
        <time>2014-03-08T14:24:52Z</time>
      </trkpt>
      <trkpt lat="49.37678" lon="0.92072">
        <ele>24.6</ele>
        <time>2014-03-08T14:25:12Z</time>
      </trkpt>
      <trkpt lat="49.37684" lon="0.92148">
        <ele>24.25</ele>
        <time>2014-03-08T14:25:27Z</time>
      </trkpt>
      <trkpt lat="49.37689" lon="0.92222">
        <ele>24.04</ele>
        <time>2014-03-08T14:25:39Z</time>
      </trkpt>
      <trkpt lat="49.37693" lon="0.92292">
        <ele>23.86</ele>
        <time>2014-03-08T14:25:50Z</time>
      </trkpt>
      <trkpt lat="49.377" lon="0.92361">
        <ele>23.97</ele>
        <time>2014-03-08T14:26:01Z</time>
      </trkpt>
      <trkpt lat="49.37705" lon="0.9243">
        <ele>23.23</ele>
        <time>2014-03-08T14:26:12Z</time>
      </trkpt>
      <trkpt lat="49.37714" lon="0.925">
        <ele>23.74</ele>
        <time>2014-03-08T14:26:24Z</time>
      </trkpt>
      <trkpt lat="49.37724" lon="0.92571">
        <ele>24.01</ele>
        <time>2014-03-08T14:26:38Z</time>
      </trkpt>
      <trkpt lat="49.37741" lon="0.92632">
        <ele>24.63</ele>
        <time>2014-03-08T14:26:53Z</time>
      </trkpt>
      <trkpt lat="49.37788" lon="0.92643">
        <ele>24.99</ele>
        <time>2014-03-08T14:27:07Z</time>
      </trkpt>
      <trkpt lat="49.37831" lon="0.92664">
        <ele>25.09</ele>
        <time>2014-03-08T14:27:22Z</time>
      </trkpt>
      <trkpt lat="49.37876" lon="0.92682">
        <ele>25.44</ele>
        <time>2014-03-08T14:27:36Z</time>
      </trkpt>
      <trkpt lat="49.37921" lon="0.92703">
        <ele>26.01</ele>
        <time>2014-03-08T14:27:50Z</time>
      </trkpt>
      <trkpt lat="49.37964" lon="0.92726">
        <ele>25.89</ele>
        <time>2014-03-08T14:28:03Z</time>
      </trkpt>
      <trkpt lat="49.38008" lon="0.92757">
        <ele>25.11</ele>
        <time>2014-03-08T14:28:15Z</time>
      </trkpt>
      <trkpt lat="49.38023" lon="0.9282">
        <ele>23.94</ele>
        <time>2014-03-08T14:28:26Z</time>
      </trkpt>
      <trkpt lat="49.3802" lon="0.92891">
        <ele>23.79</ele>
        <time>2014-03-08T14:28:37Z</time>
      </trkpt>
      <trkpt lat="49.38031" lon="0.92957">
        <ele>23.79</ele>
        <time>2014-03-08T14:28:51Z</time>
      </trkpt>
      <trkpt lat="49.38079" lon="0.92958">
        <ele>23.85</ele>
        <time>2014-03-08T14:29:04Z</time>
      </trkpt>
      <trkpt lat="49.38127" lon="0.92973">
        <ele>24.39</ele>
        <time>2014-03-08T14:29:16Z</time>
      </trkpt>
      <trkpt lat="49.38175" lon="0.92978">
        <ele>24.86</ele>
        <time>2014-03-08T14:29:29Z</time>
      </trkpt>
      <trkpt lat="49.38224" lon="0.9299">
        <ele>26.25</ele>
        <time>2014-03-08T14:29:43Z</time>
      </trkpt>
      <trkpt lat="49.38273" lon="0.92998">
        <ele>26.94</ele>
        <time>2014-03-08T14:29:56Z</time>
      </trkpt>
      <trkpt lat="49.3832" lon="0.92997">
        <ele>27.18</ele>
        <time>2014-03-08T14:30:08Z</time>
      </trkpt>
      <trkpt lat="49.38368" lon="0.92999">
        <ele>27.22</ele>
        <time>2014-03-08T14:30:20Z</time>
      </trkpt>
      <trkpt lat="49.38415" lon="0.93008">
        <ele>26.3</ele>
        <time>2014-03-08T14:30:31Z</time>
      </trkpt>
      <trkpt lat="49.38464" lon="0.93012">
        <ele>26.19</ele>
        <time>2014-03-08T14:30:45Z</time>
      </trkpt>
      <trkpt lat="49.38511" lon="0.93011">
        <ele>26.22</ele>
        <time>2014-03-08T14:30:59Z</time>
      </trkpt>
      <trkpt lat="49.38556" lon="0.93025">
        <ele>26.87</ele>
        <time>2014-03-08T14:31:11Z</time>
      </trkpt>
      <trkpt lat="49.38603" lon="0.93034">
        <ele>27.32</ele>
        <time>2014-03-08T14:31:23Z</time>
      </trkpt>
      <trkpt lat="49.3865" lon="0.93041">
        <ele>27.99</ele>
        <time>2014-03-08T14:31:35Z</time>
      </trkpt>
      <trkpt lat="49.38696" lon="0.93052">
        <ele>28.16</ele>
        <time>2014-03-08T14:31:47Z</time>
      </trkpt>
      <trkpt lat="49.38745" lon="0.93062">
        <ele>28.36</ele>
        <time>2014-03-08T14:31:59Z</time>
      </trkpt>
      <trkpt lat="49.38788" lon="0.93086">
        <ele>28.68</ele>
        <time>2014-03-08T14:32:11Z</time>
      </trkpt>
      <trkpt lat="49.38788" lon="0.93158">
        <ele>29.33</ele>
        <time>2014-03-08T14:32:24Z</time>
      </trkpt>
      <trkpt lat="49.38826" lon="0.93179">
        <ele>30.67</ele>
        <time>2014-03-08T14:32:40Z</time>
      </trkpt>
      <trkpt lat="49.38841" lon="0.9323">
        <ele>30.75</ele>
        <time>2014-03-08T14:32:55Z</time>
      </trkpt>
      <trkpt lat="49.38846" lon="0.93303">
        <ele>31.46</ele>
        <time>2014-03-08T14:33:08Z</time>
      </trkpt>
      <trkpt lat="49.38851" lon="0.93372">
        <ele>32.19</ele>
        <time>2014-03-08T14:33:21Z</time>
      </trkpt>
      <trkpt lat="49.38854" lon="0.93443">
        <ele>33.28</ele>
        <time>2014-03-08T14:33:33Z</time>
      </trkpt>
      <trkpt lat="49.38855" lon="0.93513">
        <ele>34.32</ele>
        <time>2014-03-08T14:33:44Z</time>
      </trkpt>
      <trkpt lat="49.38859" lon="0.93584">
        <ele>36.22</ele>
        <time>2014-03-08T14:33:57Z</time>
      </trkpt>
      <trkpt lat="49.38866" lon="0.93652">
        <ele>39.72</ele>
        <time>2014-03-08T14:34:10Z</time>
      </trkpt>
      <trkpt lat="49.38872" lon="0.9372">
        <ele>42.57</ele>
        <time>2014-03-08T14:34:24Z</time>
      </trkpt>
      <trkpt lat="49.38882" lon="0.93794">
        <ele>45.47</ele>
        <time>2014-03-08T14:34:39Z</time>
      </trkpt>
      <trkpt lat="49.38888" lon="0.93864">
        <ele>48.23</ele>
        <time>2014-03-08T14:34:53Z</time>
      </trkpt>
      <trkpt lat="49.38893" lon="0.93936">
        <ele>51.51</ele>
        <time>2014-03-08T14:35:09Z</time>
      </trkpt>
      <trkpt lat="49.38895" lon="0.9401">
        <ele>55.28</ele>
        <time>2014-03-08T14:35:26Z</time>
      </trkpt>
      <trkpt lat="49.38899" lon="0.9408">
        <ele>58.18</ele>
        <time>2014-03-08T14:35:43Z</time>
      </trkpt>
      <trkpt lat="49.38901" lon="0.9415">
        <ele>61.21</ele>
        <time>2014-03-08T14:36:01Z</time>
      </trkpt>
      <trkpt lat="49.38907" lon="0.9422">
        <ele>64.06</ele>
        <time>2014-03-08T14:36:19Z</time>
      </trkpt>
      <trkpt lat="49.38911" lon="0.94291">
        <ele>67.7</ele>
        <time>2014-03-08T14:36:37Z</time>
      </trkpt>
      <trkpt lat="49.38912" lon="0.94362">
        <ele>74.15</ele>
        <time>2014-03-08T14:36:59Z</time>
      </trkpt>
      <trkpt lat="49.38912" lon="0.94434">
        <ele>80.02</ele>
        <time>2014-03-08T14:37:29Z</time>
      </trkpt>
      <trkpt lat="49.38912" lon="0.94506">
        <ele>82.64</ele>
        <time>2014-03-08T14:37:52Z</time>
      </trkpt>
      <trkpt lat="49.38904" lon="0.9452">
        <ele>83.59</ele>
        <time>2014-03-08T14:38:07Z</time>
      </trkpt>
      <trkpt lat="49.38909" lon="0.94514">
        <ele>84.2</ele>
        <time>2014-03-08T14:41:20Z</time>
      </trkpt>
      <trkpt lat="49.3891" lon="0.94514">
        <ele>84.28</ele>
        <time>2014-03-08T14:41:24Z</time>
      </trkpt>
      <trkpt lat="49.38907" lon="0.94514">
        <ele>83.67</ele>
        <time>2014-03-08T14:42:09Z</time>
      </trkpt>
      <trkpt lat="49.38863" lon="0.94532">
        <ele>83.59</ele>
        <time>2014-03-08T14:42:22Z</time>
      </trkpt>
      <trkpt lat="49.38816" lon="0.94549">
        <ele>82.54</ele>
        <time>2014-03-08T14:42:37Z</time>
      </trkpt>
      <trkpt lat="49.38811" lon="0.94597">
        <ele>81.96</ele>
        <time>2014-03-08T14:42:52Z</time>
      </trkpt>
      <trkpt lat="49.38831" lon="0.94665">
        <ele>84.64</ele>
        <time>2014-03-08T14:43:06Z</time>
      </trkpt>
      <trkpt lat="49.38849" lon="0.94737">
        <ele>87.23</ele>
        <time>2014-03-08T14:43:23Z</time>
      </trkpt>
      <trkpt lat="49.38868" lon="0.94806">
        <ele>89.47</ele>
        <time>2014-03-08T14:43:39Z</time>
      </trkpt>
      <trkpt lat="49.38883" lon="0.94874">
        <ele>90.76</ele>
        <time>2014-03-08T14:43:56Z</time>
      </trkpt>
      <trkpt lat="49.38897" lon="0.94942">
        <ele>91.06</ele>
        <time>2014-03-08T14:44:10Z</time>
      </trkpt>
      <trkpt lat="49.38905" lon="0.95015">
        <ele>91.86</ele>
        <time>2014-03-08T14:44:25Z</time>
      </trkpt>
      <trkpt lat="49.3891" lon="0.95088">
        <ele>92.77</ele>
        <time>2014-03-08T14:44:39Z</time>
      </trkpt>
      <trkpt lat="49.3891" lon="0.95159">
        <ele>93.04</ele>
        <time>2014-03-08T14:44:54Z</time>
      </trkpt>
      <trkpt lat="49.38909" lon="0.95239">
        <ele>93.3</ele>
        <time>2014-03-08T14:45:09Z</time>
      </trkpt>
      <trkpt lat="49.38915" lon="0.95307">
        <ele>93.57</ele>
        <time>2014-03-08T14:45:31Z</time>
      </trkpt>
      <trkpt lat="49.38917" lon="0.953">
        <ele>94.35</ele>
        <time>2014-03-08T14:48:20Z</time>
      </trkpt>
      <trkpt lat="49.38897" lon="0.95294">
        <ele>94.35</ele>
        <time>2014-03-08T14:48:32Z</time>
      </trkpt>
      <trkpt lat="49.38882" lon="0.95307">
        <ele>94.4</ele>
        <time>2014-03-08T14:49:12Z</time>
      </trkpt>
      <trkpt lat="49.38846" lon="0.95355">
        <ele>94.36</ele>
        <time>2014-03-08T14:49:25Z</time>
      </trkpt>
      <trkpt lat="49.38811" lon="0.95404">
        <ele>95.49</ele>
        <time>2014-03-08T14:49:39Z</time>
      </trkpt>
      <trkpt lat="49.38774" lon="0.95453">
        <ele>96.01</ele>
        <time>2014-03-08T14:49:53Z</time>
      </trkpt>
      <trkpt lat="49.38737" lon="0.95501">
        <ele>96.32</ele>
        <time>2014-03-08T14:50:07Z</time>
      </trkpt>
      <trkpt lat="49.387" lon="0.95551">
        <ele>97.03</ele>
        <time>2014-03-08T14:50:21Z</time>
      </trkpt>
      <trkpt lat="49.38664" lon="0.95602">
        <ele>97.43</ele>
        <time>2014-03-08T14:50:35Z</time>
      </trkpt>
      <trkpt lat="49.38627" lon="0.95652">
        <ele>97.49</ele>
        <time>2014-03-08T14:50:49Z</time>
      </trkpt>
      <trkpt lat="49.38591" lon="0.95701">
        <ele>97.45</ele>
        <time>2014-03-08T14:51:02Z</time>
      </trkpt>
      <trkpt lat="49.38555" lon="0.95749">
        <ele>97.26</ele>
        <time>2014-03-08T14:51:15Z</time>
      </trkpt>
      <trkpt lat="49.38519" lon="0.95798">
        <ele>97.28</ele>
        <time>2014-03-08T14:51:28Z</time>
      </trkpt>
      <trkpt lat="49.38481" lon="0.9585">
        <ele>97.22</ele>
        <time>2014-03-08T14:51:41Z</time>
      </trkpt>
      <trkpt lat="49.38444" lon="0.95898">
        <ele>97.02</ele>
        <time>2014-03-08T14:51:53Z</time>
      </trkpt>
      <trkpt lat="49.38407" lon="0.95946">
        <ele>96.97</ele>
        <time>2014-03-08T14:52:05Z</time>
      </trkpt>
      <trkpt lat="49.3837" lon="0.95997">
        <ele>96.01</ele>
        <time>2014-03-08T14:52:17Z</time>
      </trkpt>
      <trkpt lat="49.38346" lon="0.96031">
        <ele>94.69</ele>
        <time>2014-03-08T14:52:30Z</time>
      </trkpt>
      <trkpt lat="49.38338" lon="0.96043">
        <ele>94.2</ele>
        <time>2014-03-08T14:53:15Z</time>
      </trkpt>
      <trkpt lat="49.38333" lon="0.96047">
        <ele>93.68</ele>
        <time>2014-03-08T14:53:21Z</time>
      </trkpt>
      <trkpt lat="49.38326" lon="0.96055">
        <ele>93.6</ele>
        <time>2014-03-08T14:53:55Z</time>
      </trkpt>
      <trkpt lat="49.38291" lon="0.96103">
        <ele>92.71</ele>
        <time>2014-03-08T14:54:04Z</time>
      </trkpt>
      <trkpt lat="49.38252" lon="0.96154">
        <ele>93.01</ele>
        <time>2014-03-08T14:54:18Z</time>
      </trkpt>
      <trkpt lat="49.38211" lon="0.96208">
        <ele>94.59</ele>
        <time>2014-03-08T14:54:34Z</time>
      </trkpt>
      <trkpt lat="49.38169" lon="0.96265">
        <ele>94.88</ele>
        <time>2014-03-08T14:54:49Z</time>
      </trkpt>
      <trkpt lat="49.3813" lon="0.96315">
        <ele>95.7</ele>
        <time>2014-03-08T14:55:04Z</time>
      </trkpt>
      <trkpt lat="49.38088" lon="0.96373">
        <ele>96.6</ele>
        <time>2014-03-08T14:55:20Z</time>
      </trkpt>
      <trkpt lat="49.38048" lon="0.96427">
        <ele>97.21</ele>
        <time>2014-03-08T14:55:35Z</time>
      </trkpt>
      <trkpt lat="49.38007" lon="0.96481">
        <ele>98.03</ele>
        <time>2014-03-08T14:55:50Z</time>
      </trkpt>
      <trkpt lat="49.37988" lon="0.96508">
        <ele>98.43</ele>
        <time>2014-03-08T14:56:03Z</time>
      </trkpt>
      <trkpt lat="49.37972" lon="0.96521">
        <ele>98.5</ele>
        <time>2014-03-08T14:57:41Z</time>
      </trkpt>
      <trkpt lat="49.37969" lon="0.96525">
        <ele>98.5</ele>
        <time>2014-03-08T14:57:49Z</time>
      </trkpt>
      <trkpt lat="49.37969" lon="0.96548">
        <ele>98.34</ele>
        <time>2014-03-08T14:59:45Z</time>
      </trkpt>
      <trkpt lat="49.3793" lon="0.96595">
        <ele>98.11</ele>
        <time>2014-03-08T15:00:01Z</time>
      </trkpt>
      <trkpt lat="49.3789" lon="0.96645">
        <ele>98.33</ele>
        <time>2014-03-08T15:00:15Z</time>
      </trkpt>
      <trkpt lat="49.37852" lon="0.96695">
        <ele>98.03</ele>
        <time>2014-03-08T15:00:30Z</time>
      </trkpt>
      <trkpt lat="49.37812" lon="0.96747">
        <ele>97.89</ele>
        <time>2014-03-08T15:00:45Z</time>
      </trkpt>
      <trkpt lat="49.37774" lon="0.96801">
        <ele>98</ele>
        <time>2014-03-08T15:00:59Z</time>
      </trkpt>
      <trkpt lat="49.37734" lon="0.96853">
        <ele>97.56</ele>
        <time>2014-03-08T15:01:12Z</time>
      </trkpt>
      <trkpt lat="49.37696" lon="0.96906">
        <ele>97.53</ele>
        <time>2014-03-08T15:01:25Z</time>
      </trkpt>
      <trkpt lat="49.37657" lon="0.96958">
        <ele>97.47</ele>
        <time>2014-03-08T15:01:38Z</time>
      </trkpt>
      <trkpt lat="49.3762" lon="0.97005">
        <ele>97.37</ele>
        <time>2014-03-08T15:01:50Z</time>
      </trkpt>
      <trkpt lat="49.37582" lon="0.97055">
        <ele>97.48</ele>
        <time>2014-03-08T15:02:05Z</time>
      </trkpt>
      <trkpt lat="49.37556" lon="0.97072">
        <ele>96.98</ele>
        <time>2014-03-08T15:02:26Z</time>
      </trkpt>
      <trkpt lat="49.37547" lon="0.97073">
        <ele>96.93</ele>
        <time>2014-03-08T15:02:59Z</time>
      </trkpt>
      <trkpt lat="49.37499" lon="0.9706">
        <ele>95.36</ele>
        <time>2014-03-08T15:03:15Z</time>
      </trkpt>
      <trkpt lat="49.37452" lon="0.97045">
        <ele>92.96</ele>
        <time>2014-03-08T15:03:27Z</time>
      </trkpt>
      <trkpt lat="49.37402" lon="0.97031">
        <ele>90.19</ele>
        <time>2014-03-08T15:03:39Z</time>
      </trkpt>
      <trkpt lat="49.37348" lon="0.97017">
        <ele>88.2</ele>
        <time>2014-03-08T15:03:51Z</time>
      </trkpt>
      <trkpt lat="49.37297" lon="0.97003">
        <ele>85.54</ele>
        <time>2014-03-08T15:04:02Z</time>
      </trkpt>
      <trkpt lat="49.37283" lon="0.97001">
        <ele>83.16</ele>
        <time>2014-03-08T15:04:10Z</time>
      </trkpt>
      <trkpt lat="49.37279" lon="0.97002">
        <ele>81.97</ele>
        <time>2014-03-08T15:04:31Z</time>
      </trkpt>
      <trkpt lat="49.37276" lon="0.9708">
        <ele>81.87</ele>
        <time>2014-03-08T15:04:49Z</time>
      </trkpt>
      <trkpt lat="49.37281" lon="0.9716">
        <ele>81.05</ele>
        <time>2014-03-08T15:05:04Z</time>
      </trkpt>
      <trkpt lat="49.37289" lon="0.97244">
        <ele>79</ele>
        <time>2014-03-08T15:05:33Z</time>
      </trkpt>
      <trkpt lat="49.37295" lon="0.97272">
        <ele>79.03</ele>
        <time>2014-03-08T15:07:35Z</time>
      </trkpt>
      <trkpt lat="49.37353" lon="0.97309">
        <ele>81.69</ele>
        <time>2014-03-08T15:08:02Z</time>
      </trkpt>
      <trkpt lat="49.37414" lon="0.9735">
        <ele>84.21</ele>
        <time>2014-03-08T15:08:29Z</time>
      </trkpt>
      <trkpt lat="49.37481" lon="0.97393">
        <ele>87.56</ele>
        <time>2014-03-08T15:09:00Z</time>
      </trkpt>
      <trkpt lat="49.37535" lon="0.97455">
        <ele>89.43</ele>
        <time>2014-03-08T15:09:28Z</time>
      </trkpt>
      <trkpt lat="49.37567" lon="0.97531">
        <ele>90.85</ele>
        <time>2014-03-08T15:09:54Z</time>
      </trkpt>
      <trkpt lat="49.37586" lon="0.97621">
        <ele>90.73</ele>
        <time>2014-03-08T15:10:15Z</time>
      </trkpt>
      <trkpt lat="49.37601" lon="0.97707">
        <ele>90.88</ele>
        <time>2014-03-08T15:10:34Z</time>
      </trkpt>
      <trkpt lat="49.37621" lon="0.97792">
        <ele>90.78</ele>
        <time>2014-03-08T15:10:52Z</time>
      </trkpt>
      <trkpt lat="49.37652" lon="0.97868">
        <ele>90.64</ele>
        <time>2014-03-08T15:11:14Z</time>
      </trkpt>
      <trkpt lat="49.37708" lon="0.97914">
        <ele>91.18</ele>
        <time>2014-03-08T15:11:38Z</time>
      </trkpt>
      <trkpt lat="49.37769" lon="0.97917">
        <ele>90.89</ele>
        <time>2014-03-08T15:11:55Z</time>
      </trkpt>
      <trkpt lat="49.3782" lon="0.9789">
        <ele>88.23</ele>
        <time>2014-03-08T15:12:15Z</time>
      </trkpt>
      <trkpt lat="49.37878" lon="0.97852">
        <ele>86.36</ele>
        <time>2014-03-08T15:12:41Z</time>
      </trkpt>
      <trkpt lat="49.37937" lon="0.97848">
        <ele>87.96</ele>
        <time>2014-03-08T15:13:04Z</time>
      </trkpt>
      <trkpt lat="49.37993" lon="0.97881">
        <ele>89.68</ele>
        <time>2014-03-08T15:13:32Z</time>
      </trkpt>
      <trkpt lat="49.38051" lon="0.97919">
        <ele>90.82</ele>
        <time>2014-03-08T15:13:57Z</time>
      </trkpt>
      <trkpt lat="49.38106" lon="0.97948">
        <ele>92.22</ele>
        <time>2014-03-08T15:14:20Z</time>
      </trkpt>
      <trkpt lat="49.38159" lon="0.97983">
        <ele>93.81</ele>
        <time>2014-03-08T15:14:42Z</time>
      </trkpt>
      <trkpt lat="49.38206" lon="0.98026">
        <ele>95.19</ele>
        <time>2014-03-08T15:15:03Z</time>
      </trkpt>
      <trkpt lat="49.38246" lon="0.98087">
        <ele>96.19</ele>
        <time>2014-03-08T15:15:23Z</time>
      </trkpt>
      <trkpt lat="49.38274" lon="0.98155">
        <ele>96.97</ele>
        <time>2014-03-08T15:15:44Z</time>
      </trkpt>
      <trkpt lat="49.38288" lon="0.98189">
        <ele>98.44</ele>
        <time>2014-03-08T15:16:05Z</time>
      </trkpt>
      <trkpt lat="49.38285" lon="0.98224">
        <ele>99.55</ele>
        <time>2014-03-08T15:18:35Z</time>
      </trkpt>
      <trkpt lat="49.3825" lon="0.98282">
        <ele>100.79</ele>
        <time>2014-03-08T15:18:53Z</time>
      </trkpt>
      <trkpt lat="49.3821" lon="0.9834">
        <ele>102.08</ele>
        <time>2014-03-08T15:19:07Z</time>
      </trkpt>
      <trkpt lat="49.38172" lon="0.98391">
        <ele>102.12</ele>
        <time>2014-03-08T15:19:21Z</time>
      </trkpt>
      <trkpt lat="49.38133" lon="0.98444">
        <ele>102.04</ele>
        <time>2014-03-08T15:19:34Z</time>
      </trkpt>
      <trkpt lat="49.38094" lon="0.98497">
        <ele>101.87</ele>
        <time>2014-03-08T15:19:48Z</time>
      </trkpt>
      <trkpt lat="49.38052" lon="0.98553">
        <ele>101.81</ele>
        <time>2014-03-08T15:20:06Z</time>
      </trkpt>
      <trkpt lat="49.38012" lon="0.98612">
        <ele>101.79</ele>
        <time>2014-03-08T15:20:22Z</time>
      </trkpt>
      <trkpt lat="49.37972" lon="0.98664">
        <ele>101.56</ele>
        <time>2014-03-08T15:20:35Z</time>
      </trkpt>
      <trkpt lat="49.37931" lon="0.98717">
        <ele>100.32</ele>
        <time>2014-03-08T15:20:48Z</time>
      </trkpt>
      <trkpt lat="49.37894" lon="0.98772">
        <ele>99.05</ele>
        <time>2014-03-08T15:20:59Z</time>
      </trkpt>
      <trkpt lat="49.37852" lon="0.98826">
        <ele>97.06</ele>
        <time>2014-03-08T15:21:09Z</time>
      </trkpt>
      <trkpt lat="49.37813" lon="0.9888">
        <ele>95.42</ele>
        <time>2014-03-08T15:21:17Z</time>
      </trkpt>
      <trkpt lat="49.37777" lon="0.9893">
        <ele>93.48</ele>
        <time>2014-03-08T15:21:25Z</time>
      </trkpt>
      <trkpt lat="49.37737" lon="0.98978">
        <ele>92.52</ele>
        <time>2014-03-08T15:21:36Z</time>
      </trkpt>
      <trkpt lat="49.377" lon="0.99034">
        <ele>92.35</ele>
        <time>2014-03-08T15:21:48Z</time>
      </trkpt>
      <trkpt lat="49.3766" lon="0.9909">
        <ele>91.88</ele>
        <time>2014-03-08T15:21:59Z</time>
      </trkpt>
      <trkpt lat="49.37622" lon="0.99142">
        <ele>91.4</ele>
        <time>2014-03-08T15:22:10Z</time>
      </trkpt>
      <trkpt lat="49.37583" lon="0.99196">
        <ele>91.31</ele>
        <time>2014-03-08T15:22:22Z</time>
      </trkpt>
      <trkpt lat="49.37542" lon="0.99252">
        <ele>90.31</ele>
        <time>2014-03-08T15:22:34Z</time>
      </trkpt>
      <trkpt lat="49.37503" lon="0.99302">
        <ele>88.66</ele>
        <time>2014-03-08T15:22:44Z</time>
      </trkpt>
      <trkpt lat="49.37461" lon="0.99356">
        <ele>86.03</ele>
        <time>2014-03-08T15:22:52Z</time>
      </trkpt>
      <trkpt lat="49.37419" lon="0.99414">
        <ele>81.96</ele>
        <time>2014-03-08T15:22:58Z</time>
      </trkpt>
      <trkpt lat="49.37383" lon="0.99465">
        <ele>75.83</ele>
        <time>2014-03-08T15:23:05Z</time>
      </trkpt>
      <trkpt lat="49.37378" lon="0.9948">
        <ele>72.63</ele>
        <time>2014-03-08T15:23:15Z</time>
      </trkpt>
      <trkpt lat="49.37383" lon="0.99488">
        <ele>72.16</ele>
        <time>2014-03-08T15:23:29Z</time>
      </trkpt>
      <trkpt lat="49.37415" lon="0.99541">
        <ele>71.66</ele>
        <time>2014-03-08T15:23:41Z</time>
      </trkpt>
      <trkpt lat="49.37451" lon="0.99592">
        <ele>71.33</ele>
        <time>2014-03-08T15:23:53Z</time>
      </trkpt>
      <trkpt lat="49.37484" lon="0.99642">
        <ele>71.47</ele>
        <time>2014-03-08T15:24:03Z</time>
      </trkpt>
      <trkpt lat="49.37521" lon="0.9969">
        <ele>73.04</ele>
        <time>2014-03-08T15:24:14Z</time>
      </trkpt>
      <trkpt lat="49.3756" lon="0.99733">
        <ele>74.04</ele>
        <time>2014-03-08T15:24:25Z</time>
      </trkpt>
      <trkpt lat="49.37598" lon="0.99774">
        <ele>74.43</ele>
        <time>2014-03-08T15:24:36Z</time>
      </trkpt>
      <trkpt lat="49.37631" lon="0.99824">
        <ele>74.74</ele>
        <time>2014-03-08T15:24:47Z</time>
      </trkpt>
      <trkpt lat="49.37666" lon="0.99875">
        <ele>74.43</ele>
        <time>2014-03-08T15:24:59Z</time>
      </trkpt>
      <trkpt lat="49.37708" lon="0.99908">
        <ele>73.83</ele>
        <time>2014-03-08T15:25:10Z</time>
      </trkpt>
      <trkpt lat="49.3776" lon="0.99934">
        <ele>74.58</ele>
        <time>2014-03-08T15:25:24Z</time>
      </trkpt>
      <trkpt lat="49.37812" lon="0.99964">
        <ele>73.32</ele>
        <time>2014-03-08T15:25:33Z</time>
      </trkpt>
      <trkpt lat="49.3786" lon="0.99988">
        <ele>70.56</ele>
        <time>2014-03-08T15:25:42Z</time>
      </trkpt>
      <trkpt lat="49.37906" lon="0.99958">
        <ele>66.73</ele>
        <time>2014-03-08T15:25:50Z</time>
      </trkpt>
      <trkpt lat="49.37943" lon="0.99894">
        <ele>61.49</ele>
        <time>2014-03-08T15:25:57Z</time>
      </trkpt>
      <trkpt lat="49.3799" lon="0.99858">
        <ele>57.5</ele>
        <time>2014-03-08T15:26:03Z</time>
      </trkpt>
      <trkpt lat="49.38014" lon="0.99887">
        <ele>53.37</ele>
        <time>2014-03-08T15:26:12Z</time>
      </trkpt>
      <trkpt lat="49.37993" lon="0.99959">
        <ele>50.16</ele>
        <time>2014-03-08T15:26:19Z</time>
      </trkpt>
      <trkpt lat="49.37973" lon="1.0003">
        <ele>46.74</ele>
        <time>2014-03-08T15:26:27Z</time>
      </trkpt>
      <trkpt lat="49.37951" lon="1.00095">
        <ele>42.38</ele>
        <time>2014-03-08T15:26:32Z</time>
      </trkpt>
      <trkpt lat="49.37936" lon="1.00163">
        <ele>36.19</ele>
        <time>2014-03-08T15:26:40Z</time>
      </trkpt>
      <trkpt lat="49.37977" lon="1.002">
        <ele>32.3</ele>
        <time>2014-03-08T15:26:52Z</time>
      </trkpt>
      <trkpt lat="49.38021" lon="1.00228">
        <ele>30.9</ele>
        <time>2014-03-08T15:27:02Z</time>
      </trkpt>
      <trkpt lat="49.38069" lon="1.00243">
        <ele>30.31</ele>
        <time>2014-03-08T15:27:14Z</time>
      </trkpt>
      <trkpt lat="49.38116" lon="1.00265">
        <ele>29.97</ele>
        <time>2014-03-08T15:27:26Z</time>
      </trkpt>
      <trkpt lat="49.38127" lon="1.00323">
        <ele>29.2</ele>
        <time>2014-03-08T15:27:37Z</time>
      </trkpt>
      <trkpt lat="49.38135" lon="1.00388">
        <ele>28.23</ele>
        <time>2014-03-08T15:27:48Z</time>
      </trkpt>
      <trkpt lat="49.38178" lon="1.00416">
        <ele>28.3</ele>
        <time>2014-03-08T15:27:59Z</time>
      </trkpt>
      <trkpt lat="49.38224" lon="1.00444">
        <ele>28.09</ele>
        <time>2014-03-08T15:28:10Z</time>
      </trkpt>
      <trkpt lat="49.38265" lon="1.00475">
        <ele>28.31</ele>
        <time>2014-03-08T15:28:21Z</time>
      </trkpt>
      <trkpt lat="49.38262" lon="1.00546">
        <ele>28.62</ele>
        <time>2014-03-08T15:28:32Z</time>
      </trkpt>
      <trkpt lat="49.38252" lon="1.00616">
        <ele>28.24</ele>
        <time>2014-03-08T15:28:44Z</time>
      </trkpt>
      <trkpt lat="49.38267" lon="1.00675">
        <ele>27.89</ele>
        <time>2014-03-08T15:28:58Z</time>
      </trkpt>
      <trkpt lat="49.38314" lon="1.00683">
        <ele>28.25</ele>
        <time>2014-03-08T15:29:10Z</time>
      </trkpt>
      <trkpt lat="49.3836" lon="1.00682">
        <ele>27.69</ele>
        <time>2014-03-08T15:29:21Z</time>
      </trkpt>
      <trkpt lat="49.38405" lon="1.00691">
        <ele>27.64</ele>
        <time>2014-03-08T15:29:32Z</time>
      </trkpt>
      <trkpt lat="49.38448" lon="1.00708">
        <ele>27.93</ele>
        <time>2014-03-08T15:29:43Z</time>
      </trkpt>
      <trkpt lat="49.38476" lon="1.00764">
        <ele>28.26</ele>
        <time>2014-03-08T15:29:54Z</time>
      </trkpt>
      <trkpt lat="49.38511" lon="1.00811">
        <ele>28.34</ele>
        <time>2014-03-08T15:30:06Z</time>
      </trkpt>
      <trkpt lat="49.38558" lon="1.00815">
        <ele>28.44</ele>
        <time>2014-03-08T15:30:20Z</time>
      </trkpt>
      <trkpt lat="49.38574" lon="1.00814">
        <ele>28.73</ele>
        <time>2014-03-08T15:30:34Z</time>
      </trkpt>
      <trkpt lat="49.38581" lon="1.00813">
        <ele>28.88</ele>
        <time>2014-03-08T15:32:03Z</time>
      </trkpt>
      <trkpt lat="49.38602" lon="1.0081">
        <ele>28.77</ele>
        <time>2014-03-08T15:32:21Z</time>
      </trkpt>
      <trkpt lat="49.38646" lon="1.00831">
        <ele>29.08</ele>
        <time>2014-03-08T15:32:33Z</time>
      </trkpt>
      <trkpt lat="49.38692" lon="1.00832">
        <ele>28.77</ele>
        <time>2014-03-08T15:32:50Z</time>
      </trkpt>
      <trkpt lat="49.38706" lon="1.00837">
        <ele>28.72</ele>
        <time>2014-03-08T15:33:02Z</time>
      </trkpt>
      <trkpt lat="49.387" lon="1.00832">
        <ele>28.83</ele>
        <time>2014-03-08T15:33:12Z</time>
      </trkpt>
      <trkpt lat="49.38651" lon="1.00826">
        <ele>28.54</ele>
        <time>2014-03-08T15:33:25Z</time>
      </trkpt>
      <trkpt lat="49.38607" lon="1.00813">
        <ele>28.5</ele>
        <time>2014-03-08T15:33:38Z</time>
      </trkpt>
      <trkpt lat="49.38573" lon="1.00767">
        <ele>28.98</ele>
        <time>2014-03-08T15:33:53Z</time>
      </trkpt>
      <trkpt lat="49.38589" lon="1.00705">
        <ele>28.79</ele>
        <time>2014-03-08T15:34:08Z</time>
      </trkpt>
      <trkpt lat="49.38629" lon="1.00698">
        <ele>28.66</ele>
        <time>2014-03-08T15:34:21Z</time>
      </trkpt>
      <trkpt lat="49.38679" lon="1.00705">
        <ele>29.11</ele>
        <time>2014-03-08T15:34:32Z</time>
      </trkpt>
      <trkpt lat="49.38728" lon="1.00711">
        <ele>29.26</ele>
        <time>2014-03-08T15:34:43Z</time>
      </trkpt>
      <trkpt lat="49.38775" lon="1.00716">
        <ele>29.01</ele>
        <time>2014-03-08T15:34:53Z</time>
      </trkpt>
      <trkpt lat="49.38822" lon="1.00722">
        <ele>28.81</ele>
        <time>2014-03-08T15:35:04Z</time>
      </trkpt>
      <trkpt lat="49.38872" lon="1.00727">
        <ele>28.78</ele>
        <time>2014-03-08T15:35:15Z</time>
      </trkpt>
      <trkpt lat="49.3892" lon="1.00733">
        <ele>29.06</ele>
        <time>2014-03-08T15:35:25Z</time>
      </trkpt>
      <trkpt lat="49.38967" lon="1.0074">
        <ele>29.2</ele>
        <time>2014-03-08T15:35:34Z</time>
      </trkpt>
      <trkpt lat="49.39016" lon="1.00746">
        <ele>28.94</ele>
        <time>2014-03-08T15:35:43Z</time>
      </trkpt>
      <trkpt lat="49.39066" lon="1.00752">
        <ele>29.08</ele>
        <time>2014-03-08T15:35:53Z</time>
      </trkpt>
      <trkpt lat="49.39115" lon="1.0076">
        <ele>29.02</ele>
        <time>2014-03-08T15:36:03Z</time>
      </trkpt>
      <trkpt lat="49.39166" lon="1.00764">
        <ele>29.38</ele>
        <time>2014-03-08T15:36:13Z</time>
      </trkpt>
      <trkpt lat="49.39218" lon="1.00767">
        <ele>29.22</ele>
        <time>2014-03-08T15:36:23Z</time>
      </trkpt>
      <trkpt lat="49.39271" lon="1.00771">
        <ele>29.22</ele>
        <time>2014-03-08T15:36:34Z</time>
      </trkpt>
      <trkpt lat="49.3932" lon="1.00779">
        <ele>29.38</ele>
        <time>2014-03-08T15:36:44Z</time>
      </trkpt>
      <trkpt lat="49.39371" lon="1.00786">
        <ele>29.32</ele>
        <time>2014-03-08T15:36:54Z</time>
      </trkpt>
      <trkpt lat="49.39422" lon="1.00791">
        <ele>29.16</ele>
        <time>2014-03-08T15:37:04Z</time>
      </trkpt>
      <trkpt lat="49.39471" lon="1.00795">
        <ele>29.11</ele>
        <time>2014-03-08T15:37:13Z</time>
      </trkpt>
      <trkpt lat="49.3952" lon="1.00802">
        <ele>29.35</ele>
        <time>2014-03-08T15:37:22Z</time>
      </trkpt>
      <trkpt lat="49.39566" lon="1.00809">
        <ele>29.41</ele>
        <time>2014-03-08T15:37:31Z</time>
      </trkpt>
      <trkpt lat="49.39616" lon="1.00821">
        <ele>29.11</ele>
        <time>2014-03-08T15:37:41Z</time>
      </trkpt>
      <trkpt lat="49.39666" lon="1.00832">
        <ele>28.92</ele>
        <time>2014-03-08T15:37:51Z</time>
      </trkpt>
      <trkpt lat="49.39713" lon="1.00848">
        <ele>29.14</ele>
        <time>2014-03-08T15:38:01Z</time>
      </trkpt>
      <trkpt lat="49.39762" lon="1.00866">
        <ele>29.03</ele>
        <time>2014-03-08T15:38:11Z</time>
      </trkpt>
      <trkpt lat="49.39808" lon="1.00881">
        <ele>29.11</ele>
        <time>2014-03-08T15:38:20Z</time>
      </trkpt>
      <trkpt lat="49.39855" lon="1.00898">
        <ele>28.97</ele>
        <time>2014-03-08T15:38:30Z</time>
      </trkpt>
      <trkpt lat="49.39902" lon="1.00915">
        <ele>28.9</ele>
        <time>2014-03-08T15:38:40Z</time>
      </trkpt>
      <trkpt lat="49.39948" lon="1.00928">
        <ele>28.99</ele>
        <time>2014-03-08T15:38:49Z</time>
      </trkpt>
      <trkpt lat="49.39994" lon="1.00941">
        <ele>28.93</ele>
        <time>2014-03-08T15:38:58Z</time>
      </trkpt>
      <trkpt lat="49.40042" lon="1.00955">
        <ele>29.37</ele>
        <time>2014-03-08T15:39:08Z</time>
      </trkpt>
      <trkpt lat="49.40092" lon="1.00965">
        <ele>29.39</ele>
        <time>2014-03-08T15:39:18Z</time>
      </trkpt>
      <trkpt lat="49.40138" lon="1.00974">
        <ele>29.22</ele>
        <time>2014-03-08T15:39:27Z</time>
      </trkpt>
      <trkpt lat="49.40183" lon="1.00985">
        <ele>29.34</ele>
        <time>2014-03-08T15:39:36Z</time>
      </trkpt>
      <trkpt lat="49.40229" lon="1.00994">
        <ele>29.61</ele>
        <time>2014-03-08T15:39:45Z</time>
      </trkpt>
      <trkpt lat="49.40274" lon="1.01004">
        <ele>29.74</ele>
        <time>2014-03-08T15:39:54Z</time>
      </trkpt>
      <trkpt lat="49.40318" lon="1.01015">
        <ele>29.92</ele>
        <time>2014-03-08T15:40:03Z</time>
      </trkpt>
      <trkpt lat="49.40365" lon="1.01025">
        <ele>29.69</ele>
        <time>2014-03-08T15:40:12Z</time>
      </trkpt>
      <trkpt lat="49.40415" lon="1.01036">
        <ele>29.52</ele>
        <time>2014-03-08T15:40:22Z</time>
      </trkpt>
      <trkpt lat="49.40463" lon="1.01046">
        <ele>29.67</ele>
        <time>2014-03-08T15:40:32Z</time>
      </trkpt>
      <trkpt lat="49.40513" lon="1.01054">
        <ele>29.49</ele>
        <time>2014-03-08T15:40:42Z</time>
      </trkpt>
      <trkpt lat="49.40561" lon="1.01063">
        <ele>29.35</ele>
        <time>2014-03-08T15:40:52Z</time>
      </trkpt>
      <trkpt lat="49.40611" lon="1.01074">
        <ele>29.69</ele>
        <time>2014-03-08T15:41:02Z</time>
      </trkpt>
      <trkpt lat="49.40659" lon="1.01084">
        <ele>29.84</ele>
        <time>2014-03-08T15:41:12Z</time>
      </trkpt>
      <trkpt lat="49.40705" lon="1.01097">
        <ele>30.01</ele>
        <time>2014-03-08T15:41:21Z</time>
      </trkpt>
      <trkpt lat="49.40752" lon="1.01111">
        <ele>30.05</ele>
        <time>2014-03-08T15:41:30Z</time>
      </trkpt>
      <trkpt lat="49.40797" lon="1.01125">
        <ele>29.83</ele>
        <time>2014-03-08T15:41:39Z</time>
      </trkpt>
      <trkpt lat="49.40846" lon="1.0114">
        <ele>30.19</ele>
        <time>2014-03-08T15:41:49Z</time>
      </trkpt>
      <trkpt lat="49.40891" lon="1.01157">
        <ele>30.36</ele>
        <time>2014-03-08T15:41:59Z</time>
      </trkpt>
      <trkpt lat="49.40939" lon="1.01174">
        <ele>29.78</ele>
        <time>2014-03-08T15:42:09Z</time>
      </trkpt>
      <trkpt lat="49.40981" lon="1.01196">
        <ele>29.57</ele>
        <time>2014-03-08T15:42:18Z</time>
      </trkpt>
      <trkpt lat="49.41031" lon="1.01214">
        <ele>29.81</ele>
        <time>2014-03-08T15:42:28Z</time>
      </trkpt>
      <trkpt lat="49.41077" lon="1.01236">
        <ele>29.8</ele>
        <time>2014-03-08T15:42:37Z</time>
      </trkpt>
      <trkpt lat="49.41122" lon="1.01255">
        <ele>29.99</ele>
        <time>2014-03-08T15:42:47Z</time>
      </trkpt>
      <trkpt lat="49.41169" lon="1.01278">
        <ele>29.85</ele>
        <time>2014-03-08T15:42:57Z</time>
      </trkpt>
      <trkpt lat="49.41214" lon="1.013">
        <ele>29.87</ele>
        <time>2014-03-08T15:43:07Z</time>
      </trkpt>
      <trkpt lat="49.41261" lon="1.01326">
        <ele>29.57</ele>
        <time>2014-03-08T15:43:17Z</time>
      </trkpt>
      <trkpt lat="49.41306" lon="1.0135">
        <ele>29.65</ele>
        <time>2014-03-08T15:43:27Z</time>
      </trkpt>
      <trkpt lat="49.41308" lon="1.01351">
        <ele>29.76</ele>
        <time>2014-03-08T15:43:32Z</time>
      </trkpt>
      <trkpt lat="49.41314" lon="1.01354">
        <ele>29.8</ele>
        <time>2014-03-08T15:43:48Z</time>
      </trkpt>
      <trkpt lat="49.4136" lon="1.01378">
        <ele>29.68</ele>
        <time>2014-03-08T15:44:04Z</time>
      </trkpt>
      <trkpt lat="49.41405" lon="1.01401">
        <ele>29.51</ele>
        <time>2014-03-08T15:44:21Z</time>
      </trkpt>
      <trkpt lat="49.41449" lon="1.01427">
        <ele>29.24</ele>
        <time>2014-03-08T15:44:36Z</time>
      </trkpt>
      <trkpt lat="49.41494" lon="1.01451">
        <ele>29.27</ele>
        <time>2014-03-08T15:44:51Z</time>
      </trkpt>
      <trkpt lat="49.41506" lon="1.01461">
        <ele>29.38</ele>
        <time>2014-03-08T15:45:02Z</time>
      </trkpt>
      <trkpt lat="49.41513" lon="1.01465">
        <ele>29.12</ele>
        <time>2014-03-08T15:45:25Z</time>
      </trkpt>
      <trkpt lat="49.41559" lon="1.01491">
        <ele>29.17</ele>
        <time>2014-03-08T15:45:40Z</time>
      </trkpt>
      <trkpt lat="49.41603" lon="1.01515">
        <ele>29.4</ele>
        <time>2014-03-08T15:45:53Z</time>
      </trkpt>
      <trkpt lat="49.4165" lon="1.01541">
        <ele>29.36</ele>
        <time>2014-03-08T15:46:06Z</time>
      </trkpt>
      <trkpt lat="49.41694" lon="1.01565">
        <ele>29.36</ele>
        <time>2014-03-08T15:46:17Z</time>
      </trkpt>
      <trkpt lat="49.4174" lon="1.01591">
        <ele>29.55</ele>
        <time>2014-03-08T15:46:28Z</time>
      </trkpt>
      <trkpt lat="49.41784" lon="1.01618">
        <ele>29.96</ele>
        <time>2014-03-08T15:46:38Z</time>
      </trkpt>
      <trkpt lat="49.41828" lon="1.01643">
        <ele>30.03</ele>
        <time>2014-03-08T15:46:48Z</time>
      </trkpt>
      <trkpt lat="49.41871" lon="1.01669">
        <ele>30</ele>
        <time>2014-03-08T15:46:58Z</time>
      </trkpt>
      <trkpt lat="49.41916" lon="1.01695">
        <ele>29.85</ele>
        <time>2014-03-08T15:47:08Z</time>
      </trkpt>
      <trkpt lat="49.41961" lon="1.01722">
        <ele>29.97</ele>
        <time>2014-03-08T15:47:18Z</time>
      </trkpt>
      <trkpt lat="49.42006" lon="1.0175">
        <ele>29.86</ele>
        <time>2014-03-08T15:47:28Z</time>
      </trkpt>
      <trkpt lat="49.4205" lon="1.01778">
        <ele>29.83</ele>
        <time>2014-03-08T15:47:38Z</time>
      </trkpt>
      <trkpt lat="49.42094" lon="1.01803">
        <ele>29.74</ele>
        <time>2014-03-08T15:47:48Z</time>
      </trkpt>
      <trkpt lat="49.42135" lon="1.01831">
        <ele>29.12</ele>
        <time>2014-03-08T15:47:58Z</time>
      </trkpt>
      <trkpt lat="49.4218" lon="1.0186">
        <ele>29.51</ele>
        <time>2014-03-08T15:48:08Z</time>
      </trkpt>
      <trkpt lat="49.42225" lon="1.01888">
        <ele>29.48</ele>
        <time>2014-03-08T15:48:19Z</time>
      </trkpt>
      <trkpt lat="49.42268" lon="1.0192">
        <ele>29.2</ele>
        <time>2014-03-08T15:48:29Z</time>
      </trkpt>
      <trkpt lat="49.42311" lon="1.01952">
        <ele>29.15</ele>
        <time>2014-03-08T15:48:39Z</time>
      </trkpt>
      <trkpt lat="49.42353" lon="1.01983">
        <ele>29.62</ele>
        <time>2014-03-08T15:48:48Z</time>
      </trkpt>
      <trkpt lat="49.42394" lon="1.02014">
        <ele>29.5</ele>
        <time>2014-03-08T15:48:57Z</time>
      </trkpt>
      <trkpt lat="49.42438" lon="1.02043">
        <ele>29.37</ele>
        <time>2014-03-08T15:49:07Z</time>
      </trkpt>
      <trkpt lat="49.42479" lon="1.02071">
        <ele>29.51</ele>
        <time>2014-03-08T15:49:17Z</time>
      </trkpt>
      <trkpt lat="49.42522" lon="1.02102">
        <ele>29.56</ele>
        <time>2014-03-08T15:49:27Z</time>
      </trkpt>
      <trkpt lat="49.42564" lon="1.02137">
        <ele>29.44</ele>
        <time>2014-03-08T15:49:37Z</time>
      </trkpt>
      <trkpt lat="49.42606" lon="1.02172">
        <ele>29.59</ele>
        <time>2014-03-08T15:49:47Z</time>
      </trkpt>
      <trkpt lat="49.42647" lon="1.02205">
        <ele>29.54</ele>
        <time>2014-03-08T15:49:57Z</time>
      </trkpt>
      <trkpt lat="49.42691" lon="1.02242">
        <ele>29.37</ele>
        <time>2014-03-08T15:50:07Z</time>
      </trkpt>
      <trkpt lat="49.42734" lon="1.02277">
        <ele>29.06</ele>
        <time>2014-03-08T15:50:17Z</time>
      </trkpt>
      <trkpt lat="49.42777" lon="1.02309">
        <ele>29.1</ele>
        <time>2014-03-08T15:50:27Z</time>
      </trkpt>
      <trkpt lat="49.42818" lon="1.02349">
        <ele>29.28</ele>
        <time>2014-03-08T15:50:37Z</time>
      </trkpt>
      <trkpt lat="49.42856" lon="1.02394">
        <ele>29.16</ele>
        <time>2014-03-08T15:50:47Z</time>
      </trkpt>
      <trkpt lat="49.42894" lon="1.02439">
        <ele>28.8</ele>
        <time>2014-03-08T15:50:58Z</time>
      </trkpt>
      <trkpt lat="49.42934" lon="1.02478">
        <ele>28.41</ele>
        <time>2014-03-08T15:51:08Z</time>
      </trkpt>
      <trkpt lat="49.42974" lon="1.02515">
        <ele>28.23</ele>
        <time>2014-03-08T15:51:18Z</time>
      </trkpt>
      <trkpt lat="49.43017" lon="1.02553">
        <ele>28.04</ele>
        <time>2014-03-08T15:51:28Z</time>
      </trkpt>
      <trkpt lat="49.43057" lon="1.02588">
        <ele>28.44</ele>
        <time>2014-03-08T15:51:40Z</time>
      </trkpt>
      <trkpt lat="49.43098" lon="1.02626">
        <ele>28.52</ele>
        <time>2014-03-08T15:51:49Z</time>
      </trkpt>
      <trkpt lat="49.43138" lon="1.02664">
        <ele>28.74</ele>
        <time>2014-03-08T15:51:58Z</time>
      </trkpt>
      <trkpt lat="49.43178" lon="1.02702">
        <ele>28.82</ele>
        <time>2014-03-08T15:52:07Z</time>
      </trkpt>
      <trkpt lat="49.43219" lon="1.02742">
        <ele>29.12</ele>
        <time>2014-03-08T15:52:16Z</time>
      </trkpt>
      <trkpt lat="49.43259" lon="1.0278">
        <ele>29.42</ele>
        <time>2014-03-08T15:52:25Z</time>
      </trkpt>
      <trkpt lat="49.43297" lon="1.02818">
        <ele>29.54</ele>
        <time>2014-03-08T15:52:34Z</time>
      </trkpt>
      <trkpt lat="49.43337" lon="1.02862">
        <ele>29.68</ele>
        <time>2014-03-08T15:52:44Z</time>
      </trkpt>
      <trkpt lat="49.43373" lon="1.02911">
        <ele>29.66</ele>
        <time>2014-03-08T15:52:54Z</time>
      </trkpt>
      <trkpt lat="49.43409" lon="1.02963">
        <ele>29.54</ele>
        <time>2014-03-08T15:53:04Z</time>
      </trkpt>
      <trkpt lat="49.43442" lon="1.03014">
        <ele>28.76</ele>
        <time>2014-03-08T15:53:13Z</time>
      </trkpt>
      <trkpt lat="49.43477" lon="1.03068">
        <ele>28.68</ele>
        <time>2014-03-08T15:53:22Z</time>
      </trkpt>
      <trkpt lat="49.4351" lon="1.03126">
        <ele>28.04</ele>
        <time>2014-03-08T15:53:31Z</time>
      </trkpt>
      <trkpt lat="49.43543" lon="1.03181">
        <ele>27.9</ele>
        <time>2014-03-08T15:53:40Z</time>
      </trkpt>
      <trkpt lat="49.43575" lon="1.03236">
        <ele>28.03</ele>
        <time>2014-03-08T15:53:48Z</time>
      </trkpt>
      <trkpt lat="49.43607" lon="1.0329">
        <ele>28.18</ele>
        <time>2014-03-08T15:53:56Z</time>
      </trkpt>
      <trkpt lat="49.43639" lon="1.03343">
        <ele>28.09</ele>
        <time>2014-03-08T15:54:04Z</time>
      </trkpt>
      <trkpt lat="49.43673" lon="1.03398">
        <ele>28.37</ele>
        <time>2014-03-08T15:54:13Z</time>
      </trkpt>
      <trkpt lat="49.4371" lon="1.0345">
        <ele>28.95</ele>
        <time>2014-03-08T15:54:23Z</time>
      </trkpt>
      <trkpt lat="49.43746" lon="1.03494">
        <ele>29.21</ele>
        <time>2014-03-08T15:54:32Z</time>
      </trkpt>
      <trkpt lat="49.43783" lon="1.03544">
        <ele>29.01</ele>
        <time>2014-03-08T15:54:42Z</time>
      </trkpt>
      <trkpt lat="49.43807" lon="1.03603">
        <ele>29.44</ele>
        <time>2014-03-08T15:54:54Z</time>
      </trkpt>
      <trkpt lat="49.43828" lon="1.03663">
        <ele>29.41</ele>
        <time>2014-03-08T15:55:04Z</time>
      </trkpt>
      <trkpt lat="49.4384" lon="1.03729">
        <ele>29.55</ele>
        <time>2014-03-08T15:55:22Z</time>
      </trkpt>
      <trkpt lat="49.43857" lon="1.038">
        <ele>29.27</ele>
        <time>2014-03-08T15:55:32Z</time>
      </trkpt>
      <trkpt lat="49.43877" lon="1.03863">
        <ele>29.4</ele>
        <time>2014-03-08T15:55:41Z</time>
      </trkpt>
      <trkpt lat="49.43897" lon="1.03926">
        <ele>29.84</ele>
        <time>2014-03-08T15:55:50Z</time>
      </trkpt>
      <trkpt lat="49.43926" lon="1.03987">
        <ele>29.9</ele>
        <time>2014-03-08T15:55:59Z</time>
      </trkpt>
      <trkpt lat="49.43949" lon="1.04053">
        <ele>29.8</ele>
        <time>2014-03-08T15:56:08Z</time>
      </trkpt>
      <trkpt lat="49.43971" lon="1.04118">
        <ele>30.28</ele>
        <time>2014-03-08T15:56:17Z</time>
      </trkpt>
      <trkpt lat="49.43998" lon="1.04182">
        <ele>31.08</ele>
        <time>2014-03-08T15:56:27Z</time>
      </trkpt>
      <trkpt lat="49.44029" lon="1.04235">
        <ele>31.17</ele>
        <time>2014-03-08T15:56:36Z</time>
      </trkpt>
      <trkpt lat="49.44063" lon="1.04283">
        <ele>31.02</ele>
        <time>2014-03-08T15:56:45Z</time>
      </trkpt>
      <trkpt lat="49.44099" lon="1.04327">
        <ele>30.94</ele>
        <time>2014-03-08T15:56:55Z</time>
      </trkpt>
      <trkpt lat="49.44143" lon="1.04369">
        <ele>30.85</ele>
        <time>2014-03-08T15:57:05Z</time>
      </trkpt>
      <trkpt lat="49.44185" lon="1.04411">
        <ele>30.94</ele>
        <time>2014-03-08T15:57:14Z</time>
      </trkpt>
      <trkpt lat="49.44231" lon="1.04452">
        <ele>30.99</ele>
        <time>2014-03-08T15:57:23Z</time>
      </trkpt>
      <trkpt lat="49.44274" lon="1.04492">
        <ele>31.16</ele>
        <time>2014-03-08T15:57:32Z</time>
      </trkpt>
      <trkpt lat="49.44317" lon="1.04528">
        <ele>31.38</ele>
        <time>2014-03-08T15:57:41Z</time>
      </trkpt>
      <trkpt lat="49.44359" lon="1.04567">
        <ele>31.29</ele>
        <time>2014-03-08T15:57:49Z</time>
      </trkpt>
      <trkpt lat="49.44401" lon="1.04604">
        <ele>31.32</ele>
        <time>2014-03-08T15:57:57Z</time>
      </trkpt>
      <trkpt lat="49.44442" lon="1.04644">
        <ele>31.49</ele>
        <time>2014-03-08T15:58:05Z</time>
      </trkpt>
      <trkpt lat="49.44486" lon="1.04687">
        <ele>31.45</ele>
        <time>2014-03-08T15:58:13Z</time>
      </trkpt>
      <trkpt lat="49.44527" lon="1.04723">
        <ele>31.04</ele>
        <time>2014-03-08T15:58:20Z</time>
      </trkpt>
      <trkpt lat="49.44572" lon="1.04762">
        <ele>31.01</ele>
        <time>2014-03-08T15:58:28Z</time>
      </trkpt>
      <trkpt lat="49.44622" lon="1.04791">
        <ele>31.51</ele>
        <time>2014-03-08T15:58:36Z</time>
      </trkpt>
      <trkpt lat="49.44669" lon="1.04811">
        <ele>31.29</ele>
        <time>2014-03-08T15:58:43Z</time>
      </trkpt>
      <trkpt lat="49.44712" lon="1.0484">
        <ele>31.1</ele>
        <time>2014-03-08T15:58:50Z</time>
      </trkpt>
      <trkpt lat="49.44754" lon="1.0488">
        <ele>31.42</ele>
        <time>2014-03-08T15:58:58Z</time>
      </trkpt>
      <trkpt lat="49.44797" lon="1.04918">
        <ele>31.52</ele>
        <time>2014-03-08T15:59:06Z</time>
      </trkpt>
      <trkpt lat="49.44836" lon="1.04955">
        <ele>31.86</ele>
        <time>2014-03-08T15:59:14Z</time>
      </trkpt>
      <trkpt lat="49.44877" lon="1.04994">
        <ele>32.19</ele>
        <time>2014-03-08T15:59:22Z</time>
      </trkpt>
      <trkpt lat="49.44884" lon="1.05063">
        <ele>32.07</ele>
        <time>2014-03-08T15:59:32Z</time>
      </trkpt>
      <trkpt lat="49.44918" lon="1.05117">
        <ele>31.52</ele>
        <time>2014-03-08T15:59:41Z</time>
      </trkpt>
      <trkpt lat="49.44944" lon="1.05176">
        <ele>31.35</ele>
        <time>2014-03-08T15:59:49Z</time>
      </trkpt>
      <trkpt lat="49.44959" lon="1.05249">
        <ele>31.33</ele>
        <time>2014-03-08T15:59:57Z</time>
      </trkpt>
      <trkpt lat="49.44972" lon="1.05325">
        <ele>31.56</ele>
        <time>2014-03-08T16:00:05Z</time>
      </trkpt>
      <trkpt lat="49.44985" lon="1.05396">
        <ele>31.55</ele>
        <time>2014-03-08T16:00:12Z</time>
      </trkpt>
      <trkpt lat="49.44998" lon="1.05467">
        <ele>31.22</ele>
        <time>2014-03-08T16:00:19Z</time>
      </trkpt>
      <trkpt lat="49.45015" lon="1.05533">
        <ele>30.96</ele>
        <time>2014-03-08T16:00:26Z</time>
      </trkpt>
      <trkpt lat="49.45032" lon="1.05602">
        <ele>31.01</ele>
        <time>2014-03-08T16:00:34Z</time>
      </trkpt>
      <trkpt lat="49.45003" lon="1.05656">
        <ele>31</ele>
        <time>2014-03-08T16:00:41Z</time>
      </trkpt>
      <trkpt lat="49.44966" lon="1.05697">
        <ele>30.97</ele>
        <time>2014-03-08T16:00:48Z</time>
      </trkpt>
      <trkpt lat="49.44928" lon="1.05737">
        <ele>30.92</ele>
        <time>2014-03-08T16:00:55Z</time>
      </trkpt>
      <trkpt lat="49.44887" lon="1.05783">
        <ele>30.63</ele>
        <time>2014-03-08T16:01:03Z</time>
      </trkpt>
      <trkpt lat="49.44851" lon="1.05838">
        <ele>30.4</ele>
        <time>2014-03-08T16:01:12Z</time>
      </trkpt>
      <trkpt lat="49.44817" lon="1.05879">
        <ele>30.95</ele>
        <time>2014-03-08T16:01:20Z</time>
      </trkpt>
      <trkpt lat="49.44774" lon="1.05916">
        <ele>30.9</ele>
        <time>2014-03-08T16:01:29Z</time>
      </trkpt>
      <trkpt lat="49.44732" lon="1.05956">
        <ele>30.63</ele>
        <time>2014-03-08T16:01:39Z</time>
      </trkpt>
      <trkpt lat="49.44695" lon="1.05997">
        <ele>30.59</ele>
        <time>2014-03-08T16:01:48Z</time>
      </trkpt>
      <trkpt lat="49.44657" lon="1.06036">
        <ele>30.81</ele>
        <time>2014-03-08T16:01:57Z</time>
      </trkpt>
      <trkpt lat="49.4462" lon="1.06077">
        <ele>30.94</ele>
        <time>2014-03-08T16:02:06Z</time>
      </trkpt>
      <trkpt lat="49.4458" lon="1.06114">
        <ele>31.13</ele>
        <time>2014-03-08T16:02:15Z</time>
      </trkpt>
      <trkpt lat="49.44539" lon="1.06144">
        <ele>31.26</ele>
        <time>2014-03-08T16:02:24Z</time>
      </trkpt>
      <trkpt lat="49.44501" lon="1.06178">
        <ele>31.1</ele>
        <time>2014-03-08T16:02:36Z</time>
      </trkpt>
      <trkpt lat="49.4446" lon="1.06199">
        <ele>30.91</ele>
        <time>2014-03-08T16:02:47Z</time>
      </trkpt>
      <trkpt lat="49.44455" lon="1.06271">
        <ele>30.11</ele>
        <time>2014-03-08T16:02:59Z</time>
      </trkpt>
      <trkpt lat="49.44455" lon="1.0634">
        <ele>30.21</ele>
        <time>2014-03-08T16:03:11Z</time>
      </trkpt>
      <trkpt lat="49.4446" lon="1.0641">
        <ele>30.37</ele>
        <time>2014-03-08T16:03:23Z</time>
      </trkpt>
      <trkpt lat="49.44457" lon="1.06486">
        <ele>30.22</ele>
        <time>2014-03-08T16:03:34Z</time>
      </trkpt>
      <trkpt lat="49.44452" lon="1.06562">
        <ele>29.88</ele>
        <time>2014-03-08T16:03:46Z</time>
      </trkpt>
      <trkpt lat="49.44448" lon="1.06635">
        <ele>29.59</ele>
        <time>2014-03-08T16:03:58Z</time>
      </trkpt>
      <trkpt lat="49.4444" lon="1.06705">
        <ele>29.88</ele>
        <time>2014-03-08T16:04:10Z</time>
      </trkpt>
      <trkpt lat="49.44432" lon="1.06777">
        <ele>29.83</ele>
        <time>2014-03-08T16:04:22Z</time>
      </trkpt>
      <trkpt lat="49.44421" lon="1.06849">
        <ele>29.67</ele>
        <time>2014-03-08T16:04:35Z</time>
      </trkpt>
      <trkpt lat="49.4441" lon="1.06917">
        <ele>29.39</ele>
        <time>2014-03-08T16:04:47Z</time>
      </trkpt>
      <trkpt lat="49.44399" lon="1.06991">
        <ele>29.74</ele>
        <time>2014-03-08T16:04:59Z</time>
      </trkpt>
      <trkpt lat="49.4438" lon="1.07057">
        <ele>29.77</ele>
        <time>2014-03-08T16:05:11Z</time>
      </trkpt>
      <trkpt lat="49.44364" lon="1.07123">
        <ele>29.8</ele>
        <time>2014-03-08T16:05:23Z</time>
      </trkpt>
      <trkpt lat="49.44347" lon="1.07188">
        <ele>30.03</ele>
        <time>2014-03-08T16:05:38Z</time>
      </trkpt>
      <trkpt lat="49.44331" lon="1.07254">
        <ele>30.12</ele>
        <time>2014-03-08T16:05:53Z</time>
      </trkpt>
      <trkpt lat="49.44313" lon="1.07322">
        <ele>30.05</ele>
        <time>2014-03-08T16:06:06Z</time>
      </trkpt>
      <trkpt lat="49.44294" lon="1.07388">
        <ele>30.26</ele>
        <time>2014-03-08T16:06:20Z</time>
      </trkpt>
      <trkpt lat="49.44277" lon="1.07457">
        <ele>30.44</ele>
        <time>2014-03-08T16:06:35Z</time>
      </trkpt>
      <trkpt lat="49.44253" lon="1.07516">
        <ele>30.25</ele>
        <time>2014-03-08T16:06:49Z</time>
      </trkpt>
      <trkpt lat="49.44233" lon="1.07579">
        <ele>30.48</ele>
        <time>2014-03-08T16:07:02Z</time>
      </trkpt>
      <trkpt lat="49.4422" lon="1.07648">
        <ele>30.32</ele>
        <time>2014-03-08T16:07:13Z</time>
      </trkpt>
      <trkpt lat="49.44193" lon="1.0771">
        <ele>29.98</ele>
        <time>2014-03-08T16:07:23Z</time>
      </trkpt>
      <trkpt lat="49.4417" lon="1.07774">
        <ele>29.92</ele>
        <time>2014-03-08T16:07:34Z</time>
      </trkpt>
      <trkpt lat="49.44151" lon="1.07838">
        <ele>29.99</ele>
        <time>2014-03-08T16:07:45Z</time>
      </trkpt>
      <trkpt lat="49.44134" lon="1.07903">
        <ele>29.92</ele>
        <time>2014-03-08T16:07:56Z</time>
      </trkpt>
      <trkpt lat="49.44113" lon="1.07969">
        <ele>29.88</ele>
        <time>2014-03-08T16:08:07Z</time>
      </trkpt>
      <trkpt lat="49.44093" lon="1.08035">
        <ele>30.09</ele>
        <time>2014-03-08T16:08:19Z</time>
      </trkpt>
      <trkpt lat="49.44076" lon="1.08105">
        <ele>30.3</ele>
        <time>2014-03-08T16:08:31Z</time>
      </trkpt>
      <trkpt lat="49.4408" lon="1.08142">
        <ele>30.7</ele>
        <time>2014-03-08T16:08:52Z</time>
      </trkpt>
      <trkpt lat="49.44071" lon="1.08169">
        <ele>31.25</ele>
        <time>2014-03-08T16:13:03Z</time>
      </trkpt>
      <trkpt lat="49.44039" lon="1.08215">
        <ele>31.05</ele>
        <time>2014-03-08T16:13:19Z</time>
      </trkpt>
      <trkpt lat="49.44023" lon="1.08283">
        <ele>31.16</ele>
        <time>2014-03-08T16:13:33Z</time>
      </trkpt>
      <trkpt lat="49.44001" lon="1.08346">
        <ele>31.01</ele>
        <time>2014-03-08T16:13:45Z</time>
      </trkpt>
      <trkpt lat="49.43983" lon="1.08415">
        <ele>30.88</ele>
        <time>2014-03-08T16:13:57Z</time>
      </trkpt>
      <trkpt lat="49.4396" lon="1.08477">
        <ele>30.91</ele>
        <time>2014-03-08T16:14:09Z</time>
      </trkpt>
      <trkpt lat="49.43942" lon="1.08542">
        <ele>30.93</ele>
        <time>2014-03-08T16:14:20Z</time>
      </trkpt>
      <trkpt lat="49.43925" lon="1.08607">
        <ele>31.03</ele>
        <time>2014-03-08T16:14:31Z</time>
      </trkpt>
      <trkpt lat="49.43909" lon="1.08672">
        <ele>31.04</ele>
        <time>2014-03-08T16:14:42Z</time>
      </trkpt>
      <trkpt lat="49.43892" lon="1.08737">
        <ele>31.32</ele>
        <time>2014-03-08T16:14:55Z</time>
      </trkpt>
      <trkpt lat="49.43876" lon="1.08805">
        <ele>31.2</ele>
        <time>2014-03-08T16:15:06Z</time>
      </trkpt>
      <trkpt lat="49.4386" lon="1.08868">
        <ele>31.36</ele>
        <time>2014-03-08T16:15:20Z</time>
      </trkpt>
      <trkpt lat="49.43842" lon="1.08939">
        <ele>31.22</ele>
        <time>2014-03-08T16:15:38Z</time>
      </trkpt>
      <trkpt lat="49.43824" lon="1.09009">
        <ele>31.11</ele>
        <time>2014-03-08T16:15:50Z</time>
      </trkpt>
      <trkpt lat="49.43805" lon="1.09079">
        <ele>31.22</ele>
        <time>2014-03-08T16:16:03Z</time>
      </trkpt>
      <trkpt lat="49.43794" lon="1.09147">
        <ele>31.39</ele>
        <time>2014-03-08T16:16:17Z</time>
      </trkpt>
      <trkpt lat="49.43775" lon="1.09216">
        <ele>31.45</ele>
        <time>2014-03-08T16:16:37Z</time>
      </trkpt>
      <trkpt lat="49.43755" lon="1.09283">
        <ele>31.29</ele>
        <time>2014-03-08T16:16:48Z</time>
      </trkpt>
      <trkpt lat="49.4374" lon="1.09354">
        <ele>31.16</ele>
        <time>2014-03-08T16:17:00Z</time>
      </trkpt>
      <trkpt lat="49.43725" lon="1.09422">
        <ele>31.35</ele>
        <time>2014-03-08T16:17:12Z</time>
      </trkpt>
      <trkpt lat="49.43711" lon="1.0949">
        <ele>31.41</ele>
        <time>2014-03-08T16:17:25Z</time>
      </trkpt>
      <trkpt lat="49.43704" lon="1.09549">
        <ele>31.45</ele>
        <time>2014-03-08T16:17:42Z</time>
      </trkpt>
      <trkpt lat="49.43697" lon="1.09581">
        <ele>38.2</ele>
        <time>2014-03-08T16:18:44Z</time>
      </trkpt>
      <trkpt lat="49.43653" lon="1.09566">
        <ele>40.43</ele>
        <time>2014-03-08T16:19:04Z</time>
      </trkpt>
      <trkpt lat="49.43605" lon="1.09549">
        <ele>40.28</ele>
        <time>2014-03-08T16:19:19Z</time>
      </trkpt>
      <trkpt lat="49.43567" lon="1.09504">
        <ele>39.52</ele>
        <time>2014-03-08T16:19:28Z</time>
      </trkpt>
      <trkpt lat="49.43538" lon="1.09448">
        <ele>39.93</ele>
        <time>2014-03-08T16:19:37Z</time>
      </trkpt>
      <trkpt lat="49.4351" lon="1.09396">
        <ele>39.22</ele>
        <time>2014-03-08T16:19:56Z</time>
      </trkpt>
      <trkpt lat="49.43506" lon="1.09387">
        <ele>39.23</ele>
        <time>2014-03-08T16:20:30Z</time>
      </trkpt>
      <trkpt lat="49.4348" lon="1.09329">
        <ele>38.85</ele>
        <time>2014-03-08T16:20:41Z</time>
      </trkpt>
      <trkpt lat="49.43447" lon="1.09268">
        <ele>37.76</ele>
        <time>2014-03-08T16:20:50Z</time>
      </trkpt>
      <trkpt lat="49.43415" lon="1.0921">
        <ele>35.87</ele>
        <time>2014-03-08T16:20:58Z</time>
      </trkpt>
      <trkpt lat="49.43381" lon="1.09153">
        <ele>34.82</ele>
        <time>2014-03-08T16:21:07Z</time>
      </trkpt>
      <trkpt lat="49.43366" lon="1.09128">
        <ele>34.45</ele>
        <time>2014-03-08T16:21:20Z</time>
      </trkpt>
      <trkpt lat="49.4336" lon="1.09118">
        <ele>34.53</ele>
        <time>2014-03-08T16:21:45Z</time>
      </trkpt>
      <trkpt lat="49.43325" lon="1.09069">
        <ele>34.3</ele>
        <time>2014-03-08T16:21:56Z</time>
      </trkpt>
      <trkpt lat="49.43293" lon="1.09011">
        <ele>34.17</ele>
        <time>2014-03-08T16:22:06Z</time>
      </trkpt>
      <trkpt lat="49.43261" lon="1.08957">
        <ele>33.78</ele>
        <time>2014-03-08T16:22:16Z</time>
      </trkpt>
      <trkpt lat="49.4323" lon="1.08898">
        <ele>33.2</ele>
        <time>2014-03-08T16:22:27Z</time>
      </trkpt>
      <trkpt lat="49.43198" lon="1.08842">
        <ele>33.3</ele>
        <time>2014-03-08T16:22:37Z</time>
      </trkpt>
      <trkpt lat="49.43164" lon="1.08782">
        <ele>32.97</ele>
        <time>2014-03-08T16:22:47Z</time>
      </trkpt>
      <trkpt lat="49.43134" lon="1.08727">
        <ele>32.89</ele>
        <time>2014-03-08T16:22:56Z</time>
      </trkpt>
      <trkpt lat="49.43101" lon="1.08666">
        <ele>33.19</ele>
        <time>2014-03-08T16:23:06Z</time>
      </trkpt>
      <trkpt lat="49.43063" lon="1.08623">
        <ele>33.38</ele>
        <time>2014-03-08T16:23:15Z</time>
      </trkpt>
      <trkpt lat="49.43021" lon="1.08592">
        <ele>33.63</ele>
        <time>2014-03-08T16:23:24Z</time>
      </trkpt>
      <trkpt lat="49.42978" lon="1.08561">
        <ele>34.23</ele>
        <time>2014-03-08T16:23:33Z</time>
      </trkpt>
      <trkpt lat="49.42935" lon="1.08527">
        <ele>35.1</ele>
        <time>2014-03-08T16:23:42Z</time>
      </trkpt>
      <trkpt lat="49.4289" lon="1.08494">
        <ele>35.55</ele>
        <time>2014-03-08T16:23:51Z</time>
      </trkpt>
      <trkpt lat="49.4285" lon="1.08461">
        <ele>36.06</ele>
        <time>2014-03-08T16:24:02Z</time>
      </trkpt>
      <trkpt lat="49.42807" lon="1.08425">
        <ele>36.77</ele>
        <time>2014-03-08T16:24:17Z</time>
      </trkpt>
      <trkpt lat="49.42778" lon="1.08406">
        <ele>37.32</ele>
        <time>2014-03-08T16:24:35Z</time>
      </trkpt>
      <trkpt lat="49.42771" lon="1.08404">
        <ele>37.31</ele>
        <time>2014-03-08T16:24:45Z</time>
      </trkpt>
      <trkpt lat="49.42745" lon="1.08381">
        <ele>37.45</ele>
        <time>2014-03-08T16:25:01Z</time>
      </trkpt>
      <trkpt lat="49.42738" lon="1.08368">
        <ele>37.7</ele>
        <time>2014-03-08T16:25:55Z</time>
      </trkpt>
      <trkpt lat="49.42692" lon="1.08339">
        <ele>37.81</ele>
        <time>2014-03-08T16:26:05Z</time>
      </trkpt>
      <trkpt lat="49.42649" lon="1.0831">
        <ele>38.06</ele>
        <time>2014-03-08T16:26:14Z</time>
      </trkpt>
      <trkpt lat="49.42605" lon="1.08281">
        <ele>38.57</ele>
        <time>2014-03-08T16:26:22Z</time>
      </trkpt>
      <trkpt lat="49.42558" lon="1.08252">
        <ele>38.25</ele>
        <time>2014-03-08T16:26:30Z</time>
      </trkpt>
      <trkpt lat="49.42516" lon="1.08221">
        <ele>37.89</ele>
        <time>2014-03-08T16:26:37Z</time>
      </trkpt>
      <trkpt lat="49.42475" lon="1.08188">
        <ele>37.21</ele>
        <time>2014-03-08T16:26:44Z</time>
      </trkpt>
      <trkpt lat="49.42431" lon="1.08157">
        <ele>36.97</ele>
        <time>2014-03-08T16:26:51Z</time>
      </trkpt>
      <trkpt lat="49.42388" lon="1.08126">
        <ele>36.53</ele>
        <time>2014-03-08T16:26:58Z</time>
      </trkpt>
      <trkpt lat="49.42347" lon="1.08096">
        <ele>36.1</ele>
        <time>2014-03-08T16:27:05Z</time>
      </trkpt>
      <trkpt lat="49.42304" lon="1.08065">
        <ele>35.67</ele>
        <time>2014-03-08T16:27:13Z</time>
      </trkpt>
      <trkpt lat="49.42263" lon="1.08033">
        <ele>35.6</ele>
        <time>2014-03-08T16:27:25Z</time>
      </trkpt>
      <trkpt lat="49.42247" lon="1.0802">
        <ele>35.21</ele>
        <time>2014-03-08T16:27:38Z</time>
      </trkpt>
      <trkpt lat="49.42244" lon="1.08016">
        <ele>35.27</ele>
        <time>2014-03-08T16:27:45Z</time>
      </trkpt>
      <trkpt lat="49.42201" lon="1.07985">
        <ele>35.27</ele>
        <time>2014-03-08T16:27:56Z</time>
      </trkpt>
      <trkpt lat="49.42159" lon="1.07955">
        <ele>35.66</ele>
        <time>2014-03-08T16:28:05Z</time>
      </trkpt>
      <trkpt lat="49.42115" lon="1.07923">
        <ele>36.75</ele>
        <time>2014-03-08T16:28:19Z</time>
      </trkpt>
      <trkpt lat="49.42074" lon="1.07891">
        <ele>37.38</ele>
        <time>2014-03-08T16:28:29Z</time>
      </trkpt>
      <trkpt lat="49.42028" lon="1.07859">
        <ele>38.62</ele>
        <time>2014-03-08T16:28:46Z</time>
      </trkpt>
      <trkpt lat="49.41979" lon="1.07819">
        <ele>39.81</ele>
        <time>2014-03-08T16:29:13Z</time>
      </trkpt>
      <trkpt lat="49.41935" lon="1.07786">
        <ele>41.11</ele>
        <time>2014-03-08T16:29:23Z</time>
      </trkpt>
      <trkpt lat="49.41888" lon="1.07758">
        <ele>43.26</ele>
        <time>2014-03-08T16:29:35Z</time>
      </trkpt>
      <trkpt lat="49.41844" lon="1.07727">
        <ele>45.5</ele>
        <time>2014-03-08T16:29:48Z</time>
      </trkpt>
      <trkpt lat="49.418" lon="1.07695">
        <ele>46.96</ele>
        <time>2014-03-08T16:29:58Z</time>
      </trkpt>
      <trkpt lat="49.41754" lon="1.07661">
        <ele>48.57</ele>
        <time>2014-03-08T16:30:07Z</time>
      </trkpt>
      <trkpt lat="49.4171" lon="1.07628">
        <ele>50.19</ele>
        <time>2014-03-08T16:30:16Z</time>
      </trkpt>
      <trkpt lat="49.41665" lon="1.07594">
        <ele>51.94</ele>
        <time>2014-03-08T16:30:25Z</time>
      </trkpt>
      <trkpt lat="49.4162" lon="1.07563">
        <ele>52.96</ele>
        <time>2014-03-08T16:30:35Z</time>
      </trkpt>
      <trkpt lat="49.41613" lon="1.07558">
        <ele>53.45</ele>
        <time>2014-03-08T16:30:41Z</time>
      </trkpt>
      <trkpt lat="49.41602" lon="1.07549">
        <ele>53.82</ele>
        <time>2014-03-08T16:31:07Z</time>
      </trkpt>
      <trkpt lat="49.4156" lon="1.07518">
        <ele>54.3</ele>
        <time>2014-03-08T16:31:19Z</time>
      </trkpt>
      <trkpt lat="49.41516" lon="1.07486">
        <ele>54.78</ele>
        <time>2014-03-08T16:31:32Z</time>
      </trkpt>
      <trkpt lat="49.41473" lon="1.07453">
        <ele>55.23</ele>
        <time>2014-03-08T16:31:44Z</time>
      </trkpt>
      <trkpt lat="49.4143" lon="1.07423">
        <ele>55.72</ele>
        <time>2014-03-08T16:31:55Z</time>
      </trkpt>
      <trkpt lat="49.41386" lon="1.07392">
        <ele>56.47</ele>
        <time>2014-03-08T16:32:06Z</time>
      </trkpt>
      <trkpt lat="49.41344" lon="1.07363">
        <ele>56.99</ele>
        <time>2014-03-08T16:32:16Z</time>
      </trkpt>
      <trkpt lat="49.41302" lon="1.0733">
        <ele>57.45</ele>
        <time>2014-03-08T16:32:27Z</time>
      </trkpt>
      <trkpt lat="49.41261" lon="1.07291">
        <ele>58.23</ele>
        <time>2014-03-08T16:32:50Z</time>
      </trkpt>
      <trkpt lat="49.4126" lon="1.07288">
        <ele>32</ele>
      </trkpt>
      <trkpt lat="49.41249" lon="1.07277">
        <ele>32.1</ele>
      </trkpt>
      <trkpt lat="49.41233" lon="1.07208">
        <ele>32.3</ele>
      </trkpt>
      <trkpt lat="49.41181" lon="1.07217">
        <ele>32.4</ele>
      </trkpt>
      <trkpt lat="49.39251" lon="1.05841">
        <ele>69</ele>
      </trkpt>
      <trkpt lat="49.38868" lon="1.05956">
        <ele>71</ele>
      </trkpt>
    </trkseg>
  </trk>
</gpx>